»·PEaware :: CX881 KLAX-VHHH

CX881 :: KLAX-VHHH

FLIGHT INFORMATION

Flight Status: Arrived
Operator: Privately registered:
Uruguay
More flights under this callsign
Pilot: Linwood P. (738)
Aircraft: Unknown
(KLAX)
More flights by this aircraft type
Origin: KLAX Los Angeles Intl
United States
Destination: VHHH Hong Kong Chek Lap Kok
Hong Kong
More flights between these airports :: More routes between these airports
Route: +VTU5 RZS MQO AUDIA TUTNO GUMBO J5 HCN G581 ELATO VHHH
File this flight plan on PilotEdge
Remarks: flight plan
Altitude:
(Current/Filed)
32,000ft
Speed:
(Current/Filed)
505kts
Departed: 21-Jul-12 12:04 PM
Arrived: 22-Jul-12 12:12 PM
Distance/Time
Traveled:
6295nm/24:08
Distance/Time
To Go:
Arrived

Flight Plot

Page will automatically refresh every two minutes.

Flight plan parsing failed; only flown route is shown


Map Options




Map Legend


Flown Route
Filed Route
Departure Airport
Arrival Airport
Navaid (VOR, NDB)
Fix

Horizontal Profiles

Position Reports

Time Latitude Longitude Heading Altitude Ground
Speed
21-Jul-12 11:05 33.934898 -118.388609 81 110ft 0kts
21-Jul-12 11:06 33.934898 -118.388609 81 110ft 0kts
21-Jul-12 11:07 33.934898 -118.388609 81 110ft 0kts
21-Jul-12 11:08 33.934898 -118.388609 81 110ft 0kts
21-Jul-12 11:09 33.934898 -118.388609 81 110ft 0kts
21-Jul-12 11:10 33.934898 -118.388609 81 110ft 0kts
21-Jul-12 11:11 33.934898 -118.388609 81 110ft 0kts
21-Jul-12 11:12 33.934898 -118.388609 81 110ft 0kts
21-Jul-12 11:13 33.934898 -118.388609 81 110ft 0kts
21-Jul-12 11:14 33.934898 -118.388609 81 110ft 0kts
21-Jul-12 11:15 33.934898 -118.388609 81 110ft 0kts
21-Jul-12 11:16 33.934898 -118.388609 81 110ft 0kts
21-Jul-12 11:17 33.934898 -118.388609 81 110ft 0kts
21-Jul-12 11:18 33.934898 -118.388609 81 110ft 0kts
21-Jul-12 11:19 33.934898 -118.388609 81 110ft 0kts
21-Jul-12 11:20 33.934898 -118.388609 81 110ft 0kts
21-Jul-12 11:21 33.934898 -118.388609 81 110ft 0kts
21-Jul-12 11:22 33.934898 -118.388609 81 110ft 0kts
21-Jul-12 11:23 33.934898 -118.388609 81 110ft 0kts
21-Jul-12 11:24 33.934898 -118.388609 81 110ft 0kts
21-Jul-12 11:25 33.934898 -118.388609 81 110ft 0kts
21-Jul-12 11:26 33.934898 -118.388609 81 110ft 0kts
21-Jul-12 11:27 33.934898 -118.388609 81 111ft 0kts
21-Jul-12 11:28 33.934898 -118.388609 81 111ft 0kts
21-Jul-12 11:29 33.934898 -118.388609 81 110ft 0kts
21-Jul-12 11:30 33.934898 -118.388609 81 110ft 0kts
21-Jul-12 11:31 33.934898 -118.388609 81 110ft 0kts
21-Jul-12 11:32 33.934898 -118.388609 81 110ft 0kts
21-Jul-12 11:33 33.934898 -118.388609 81 110ft 0kts
21-Jul-12 11:34 33.934898 -118.388609 81 110ft 0kts
21-Jul-12 11:35 33.934898 -118.388609 81 110ft 0kts
21-Jul-12 11:36 33.934898 -118.388609 81 110ft 0kts
21-Jul-12 11:37 33.934898 -118.388609 81 110ft 0kts
21-Jul-12 11:40 33.934898 -118.388609 81 110ft 0kts
21-Jul-12 11:41 33.935381 -118.386208 83 110ft 0kts
21-Jul-12 11:42 33.935381 -118.386208 83 110ft 0kts
21-Jul-12 11:43 33.935381 -118.386208 83 110ft 0kts
21-Jul-12 11:44 33.935381 -118.386208 83 110ft 0kts
21-Jul-12 11:45 33.935381 -118.386208 83 110ft 0kts
21-Jul-12 11:46 33.935381 -118.386208 83 110ft 0kts
21-Jul-12 11:47 33.935381 -118.386208 83 110ft 0kts
21-Jul-12 11:48 33.935381 -118.386208 83 110ft 0kts
21-Jul-12 11:49 33.935381 -118.386208 83 110ft 0kts
21-Jul-12 11:50 33.935381 -118.386208 83 110ft 0kts
21-Jul-12 11:51 33.935381 -118.386208 83 110ft 0kts
21-Jul-12 11:52 33.935381 -118.386208 83 110ft 0kts
21-Jul-12 11:53 33.935381 -118.386208 83 110ft 0kts
21-Jul-12 11:54 33.935865 -118.419215 82 125ft 0kts
21-Jul-12 11:55 33.935865 -118.419215 82 125ft 0kts
21-Jul-12 11:56 33.935865 -118.419215 82 125ft 0kts
21-Jul-12 11:57 33.935833 -118.419428 124 124ft 2kts
21-Jul-12 11:58 33.932713 -118.417743 103 125ft 6kts
21-Jul-12 11:59 33.932947 -118.413883 83 131ft 7kts
21-Jul-12 12:00 33.935375 -118.386484 83 -7ft 0kts
21-Jul-12 12:01 33.935492 -118.385899 82 133ft 0kts
21-Jul-12 12:02 33.935864 -118.419207 82 125ft 0kts
21-Jul-12 12:03 33.934711 -118.387241 358 357ft 146kts
21-Jul-12 12:04 33.935862 -118.419210 82 125ft 0kts
21-Jul-12 12:05 33.937362 -118.382938 262 107ft 0kts
21-Jul-12 12:06 33.937362 -118.382938 262 107ft 0kts
21-Jul-12 12:07 33.937362 -118.382938 262 107ft 0kts
21-Jul-12 12:08 33.932683 -118.425846 261 1347ft 209kts
21-Jul-12 12:09 33.922637 -118.495643 258 4819ft 229kts
21-Jul-12 12:10 33.913789 -118.575717 263 7615ft 265kts
21-Jul-12 12:11 33.905371 -118.668442 263 7152ft 281kts
21-Jul-12 12:12 33.896986 -118.760397 263 7610ft 278kts
21-Jul-12 12:13 33.929121 -118.836925 327 9974ft 289kts
21-Jul-12 12:14 33.963943 -118.864263 326 11346ft 295kts
21-Jul-12 12:15 34.045858 -118.929002 326 14475ft 309kts
21-Jul-12 12:16 34.118343 -118.986494 326 17156ft 314kts
21-Jul-12 12:17 34.178036 -119.036146 318 19067ft 316kts
21-Jul-12 12:19 34.275693 -119.206632 298 23115ft 296kts
21-Jul-12 12:20 34.311686 -119.289612 297 24859ft 257kts
21-Jul-12 12:21 34.344637 -119.370388 295 25122ft 266kts
21-Jul-12 12:22 34.372795 -119.440831 295 24937ft 292kts
21-Jul-12 12:23 34.401977 -119.516244 294 24979ft 332kts
21-Jul-12 12:24 34.440611 -119.620841 293 27259ft 309kts
21-Jul-12 12:25 34.476536 -119.721709 293 27651ft 342kts
21-Jul-12 12:26 34.512290 -119.822872 293 29142ft 332kts
21-Jul-12 12:27 34.565789 -119.914839 338 29555ft 347kts
21-Jul-12 12:28 34.649614 -119.972045 320 30502ft 350kts
21-Jul-12 12:29 34.720655 -120.053426 314 31395ft 351kts
21-Jul-12 12:30 34.787818 -120.138895 313 32260ft 349kts
21-Jul-12 12:31 34.853547 -120.224544 312 33050ft 342kts
21-Jul-12 12:32 34.917465 -120.309361 312 33602ft 336kts
21-Jul-12 12:33 34.979543 -120.392215 312 34120ft 325kts
21-Jul-12 12:34 35.038787 -120.471533 312 34467ft 310kts
21-Jul-12 12:35 35.089647 -120.540245 311 34247ft 302kts
21-Jul-12 12:36 35.115669 -120.575974 311 34635ft 283kts
21-Jul-12 12:37 35.167924 -120.649826 310 34655ft 276kts
21-Jul-12 12:38 35.221642 -120.721542 314 34010ft 297kts
21-Jul-12 12:39 35.250026 -120.812756 271 34906ft 250kts
21-Jul-12 12:40 35.251562 -120.885481 271 34479ft 266kts
21-Jul-12 12:41 35.213142 -120.965931 211 33793ft 303kts
21-Jul-12 12:42 35.146852 -121.039725 233 33700ft 348kts
21-Jul-12 12:43 35.092033 -121.148120 241 33620ft 404kts
21-Jul-12 12:44 35.035495 -121.279223 242 33521ft 467kts
21-Jul-12 12:45 34.984544 -121.399051 242 33519ft 504kts
21-Jul-12 12:46 34.965489 -121.443864 242 33505ft 506kts
21-Jul-12 12:47 34.900430 -121.596529 242 33917ft 509kts
21-Jul-12 12:48 34.834825 -121.749811 242 34425ft 513kts
21-Jul-12 12:49 34.768534 -121.903998 242 34509ft 514kts
21-Jul-12 12:50 34.717140 -122.023061 242 34508ft 514kts
21-Jul-12 12:51 34.651359 -122.176701 242 34510ft 514kts
21-Jul-12 12:52 34.584808 -122.330992 242 34510ft 514kts
21-Jul-12 12:54 34.450943 -122.636591 241 34510ft 514kts
21-Jul-12 12:55 34.394640 -122.764243 241 34510ft 514kts
21-Jul-12 12:56 34.315943 -122.941902 241 34510ft 514kts
21-Jul-12 12:57 34.261839 -123.070276 253 34479ft 513kts
21-Jul-12 12:58 34.254247 -123.242089 270 34510ft 514kts
21-Jul-12 12:59 34.257376 -123.414972 271 34510ft 514kts
21-Jul-12 13:01 34.264538 -123.760527 271 34510ft 514kts
21-Jul-12 13:02 34.267803 -123.933331 271 34510ft 514kts
21-Jul-12 13:03 34.270825 -124.106034 270 34507ft 514kts
21-Jul-12 13:04 34.274721 -124.279097 271 34510ft 514kts
21-Jul-12 13:05 34.277417 -124.451714 270 34510ft 514kts
21-Jul-12 13:06 34.279559 -124.611045 270 34510ft 514kts
21-Jul-12 13:07 34.280893 -124.719877 270 34510ft 514kts
21-Jul-12 13:08 34.282812 -124.892673 270 34510ft 514kts
21-Jul-12 13:09 34.284464 -125.062888 270 34507ft 503kts
21-Jul-12 13:10 34.286829 -125.232034 270 34510ft 503kts
21-Jul-12 13:11 34.288304 -125.401423 270 34510ft 503kts
21-Jul-12 13:12 34.289282 -125.570788 270 34510ft 503kts
21-Jul-12 13:13 34.290001 -125.740943 270 34510ft 503kts
21-Jul-12 13:14 34.290480 -125.910573 270 34510ft 503kts
21-Jul-12 13:15 34.290724 -126.079822 270 34510ft 503kts
21-Jul-12 13:16 34.291756 -126.249442 270 34510ft 503kts
21-Jul-12 13:17 34.291774 -126.418852 269 34510ft 503kts
21-Jul-12 13:18 34.291345 -126.588543 269 34510ft 503kts
21-Jul-12 13:19 34.290658 -126.758214 269 34510ft 503kts
21-Jul-12 13:20 34.289734 -126.928067 269 34510ft 503kts
21-Jul-12 13:21 34.288583 -127.096852 269 34510ft 503kts
21-Jul-12 13:22 34.288264 -127.266425 269 34510ft 503kts
21-Jul-12 13:23 34.286833 -127.436261 269 34510ft 503kts
21-Jul-12 13:24 34.284999 -127.605771 269 34510ft 503kts
21-Jul-12 13:25 34.282911 -127.775305 269 34510ft 503kts
21-Jul-12 13:26 34.280586 -127.944930 269 34510ft 503kts
21-Jul-12 13:27 34.278053 -128.114157 269 34509ft 503kts
21-Jul-12 13:28 34.276356 -128.283717 268 34510ft 503kts
21-Jul-12 13:29 34.273482 -128.453628 268 34510ft 503kts
21-Jul-12 13:30 34.270245 -128.622943 268 34510ft 503kts
21-Jul-12 13:31 34.266758 -128.792360 268 34510ft 503kts
21-Jul-12 13:32 34.263079 -128.959849 268 34510ft 503kts
21-Jul-12 13:33 34.259822 -129.100158 268 34510ft 503kts
21-Jul-12 13:34 34.256747 -129.269823 268 34510ft 503kts
21-Jul-12 13:35 34.252550 -129.439419 268 34510ft 503kts
21-Jul-12 13:36 34.247954 -129.608939 268 34510ft 503kts
21-Jul-12 13:37 34.243122 -129.777881 268 34510ft 503kts
21-Jul-12 13:38 34.238044 -129.947217 268 34510ft 503kts
21-Jul-12 13:39 34.232789 -130.115605 267 34509ft 503kts
21-Jul-12 13:40 34.228332 -130.284860 267 34510ft 503kts
21-Jul-12 13:41 34.252476 -130.438256 300 34526ft 503kts
21-Jul-12 13:42 34.280446 -130.601788 270 34512ft 503kts
21-Jul-12 13:43 34.275240 -130.771318 266 34510ft 503kts
21-Jul-12 13:44 34.276892 -130.930835 265 34540ft 504kts
21-Jul-12 13:45 34.275471 -130.952603 265 34527ft 504kts
21-Jul-12 13:46 34.267263 -131.083970 265 34510ft 503kts
21-Jul-12 13:47 34.257686 -131.252366 265 34510ft 503kts
21-Jul-12 13:48 34.247016 -131.421622 265 34510ft 503kts
21-Jul-12 13:49 34.235927 -131.590706 265 34510ft 503kts
21-Jul-12 13:50 34.224595 -131.759616 265 34510ft 503kts
21-Jul-12 13:51 34.213037 -131.928375 265 34510ft 503kts
21-Jul-12 13:52 34.201282 -132.096589 265 34510ft 503kts
21-Jul-12 13:53 34.197985 -132.148143 265 34510ft 503kts
21-Jul-12 13:54 34.197985 -132.148143 265 34510ft 503kts
21-Jul-12 13:55 34.197985 -132.148143 265 34510ft 503kts
21-Jul-12 13:56 34.197985 -132.148143 265 34510ft 503kts
21-Jul-12 13:57 34.195657 -132.185808 265 34509ft 503kts
21-Jul-12 13:58 34.199988 -132.353970 283 34520ft 504kts
21-Jul-12 13:59 34.201205 -132.522417 265 34511ft 503kts
21-Jul-12 14:00 34.187072 -132.689862 263 34510ft 503kts
21-Jul-12 14:01 34.175467 -132.815482 263 34510ft 503kts
21-Jul-12 14:02 34.159540 -132.984072 263 34510ft 503kts
21-Jul-12 14:03 34.143851 -133.151662 263 34510ft 503kts
21-Jul-12 14:04 34.128241 -133.320117 263 34510ft 503kts
21-Jul-12 14:05 34.111708 -133.488336 263 34510ft 503kts
21-Jul-12 14:06 34.094917 -133.655966 263 34510ft 503kts
21-Jul-12 14:07 34.077840 -133.824025 263 34510ft 503kts
21-Jul-12 14:08 34.045008 -133.986141 234 34514ft 503kts
21-Jul-12 14:09 33.924128 -134.060687 197 34509ft 504kts
21-Jul-12 14:10 33.833754 -134.179086 257 34512ft 503kts
21-Jul-12 14:11 33.871870 -134.334054 315 34518ft 503kts
21-Jul-12 14:12 33.970329 -134.453744 303 34497ft 503kts
21-Jul-12 14:13 34.017659 -134.581812 289 34511ft 503kts
21-Jul-12 14:14 34.059205 -134.742942 286 34510ft 503kts
21-Jul-12 14:15 34.098186 -134.905271 286 34510ft 503kts
21-Jul-12 14:16 34.136755 -135.068122 286 34510ft 503kts
21-Jul-12 14:17 34.175948 -135.230473 285 34510ft 503kts
21-Jul-12 14:18 34.214218 -135.393068 285 34510ft 503kts
21-Jul-12 14:19 34.252153 -135.556403 285 34510ft 503kts
21-Jul-12 14:20 34.289669 -135.719127 285 34510ft 503kts
21-Jul-12 14:21 34.327127 -135.882701 285 34510ft 503kts
21-Jul-12 14:22 34.364228 -136.045807 285 34510ft 503kts
21-Jul-12 14:23 34.401959 -136.208845 285 34510ft 503kts
21-Jul-12 14:24 34.439196 -136.373024 285 34510ft 503kts
21-Jul-12 14:25 34.475724 -136.536721 285 34510ft 503kts
21-Jul-12 14:26 34.496964 -136.632519 285 34510ft 503kts
21-Jul-12 14:27 34.533143 -136.796623 285 34510ft 503kts
21-Jul-12 14:28 34.569102 -136.960872 285 34510ft 503kts
21-Jul-12 14:29 34.605024 -137.125633 285 34510ft 503kts
21-Jul-12 14:30 34.641546 -137.289753 284 34510ft 503kts
21-Jul-12 14:31 34.677015 -137.454604 284 34510ft 503kts
21-Jul-12 14:32 34.712096 -137.619398 284 34510ft 503kts
21-Jul-12 14:33 34.746881 -137.784048 284 34510ft 503kts
21-Jul-12 14:34 34.781636 -137.949764 284 34510ft 503kts
21-Jul-12 14:35 34.816004 -138.114721 284 34509ft 503kts
21-Jul-12 14:36 34.851305 -138.279939 284 34510ft 503kts
21-Jul-12 14:37 34.885356 -138.445122 283 34510ft 503kts
21-Jul-12 14:38 34.919192 -138.611192 283 34510ft 503kts
21-Jul-12 14:39 34.952651 -138.776738 283 34510ft 503kts
21-Jul-12 14:40 34.985989 -138.942945 283 34510ft 503kts
21-Jul-12 14:41 35.018972 -139.108616 283 34509ft 503kts
21-Jul-12 14:42 35.052883 -139.274443 283 34510ft 503kts
21-Jul-12 14:43 35.085678 -139.440844 283 34510ft 503kts
21-Jul-12 14:44 35.118050 -139.607182 283 34510ft 503kts
21-Jul-12 14:45 35.150285 -139.774211 283 34510ft 503kts
21-Jul-12 14:46 35.182251 -139.941182 283 34510ft 503kts
21-Jul-12 14:47 35.213864 -140.107613 282 34509ft 503kts
21-Jul-12 14:48 35.246465 -140.274542 282 34510ft 503kts
21-Jul-12 14:49 35.277882 -140.441682 282 34510ft 503kts
21-Jul-12 14:50 35.308881 -140.608792 282 34510ft 503kts
21-Jul-12 14:51 35.339691 -140.776360 282 34510ft 503kts
21-Jul-12 14:53 35.395553 -141.083801 282 34510ft 503kts
21-Jul-12 14:54 35.426570 -141.250594 282 34510ft 503kts
21-Jul-12 14:55 35.434133 -141.292286 282 34510ft 503kts
21-Jul-12 14:56 35.434133 -141.292286 282 34510ft 503kts
21-Jul-12 14:57 35.434133 -141.292286 282 34510ft 503kts
21-Jul-12 14:58 35.434133 -141.292286 282 34510ft 503kts
21-Jul-12 14:59 35.434133 -141.292286 282 34510ft 503kts
21-Jul-12 15:00 35.442408 -141.338299 282 34510ft 503kts
21-Jul-12 15:01 35.472324 -141.506600 282 34510ft 503kts
21-Jul-12 15:02 35.501870 -141.674674 282 34510ft 503kts
21-Jul-12 15:03 35.531188 -141.842954 282 34510ft 503kts
21-Jul-12 15:04 35.560199 -142.010947 282 34510ft 503kts
21-Jul-12 15:05 35.589735 -142.179579 282 34510ft 503kts
21-Jul-12 15:06 35.618925 -142.348009 281 34510ft 503kts
21-Jul-12 15:07 35.647384 -142.516814 281 34510ft 503kts
21-Jul-12 15:08 35.675546 -142.685784 281 34510ft 503kts
21-Jul-12 15:09 35.703438 -142.854721 281 34510ft 503kts
21-Jul-12 15:10 35.731150 -143.024131 281 34510ft 503kts
21-Jul-12 15:11 35.759395 -143.193627 281 34509ft 503kts
21-Jul-12 15:12 35.787033 -143.362478 281 34510ft 503kts
21-Jul-12 15:13 35.813878 -143.530842 281 34490ft 480kts
21-Jul-12 15:14 35.836545 -143.674536 281 34449ft 373kts
21-Jul-12 15:15 35.853116 -143.780300 281 34033ft 260kts
21-Jul-12 15:16 35.867127 -143.870208 281 30491ft 257kts
21-Jul-12 15:17 35.880394 -143.955849 281 27276ft 248kts
21-Jul-12 15:18 35.893017 -144.037800 281 24275ft 238kts
21-Jul-12 15:19 35.903995 -144.109445 280 21647ft 229kts
21-Jul-12 15:20 35.910576 -144.152572 280 20084ft 223kts
21-Jul-12 15:21 35.921419 -144.224780 280 17350ft 211kts
21-Jul-12 15:22 35.931077 -144.289610 280 15578ft 137kts
21-Jul-12 15:23 35.937152 -144.330948 280 12838ft 149kts
21-Jul-12 15:24 35.940558 -144.354362 280 11420ft 146kts
21-Jul-12 15:25 35.947510 -144.402308 280 8410ft 146kts
21-Jul-12 15:26 35.954321 -144.449537 280 5497ft 139kts
21-Jul-12 15:27 35.960584 -144.493256 279 2666ft 129kts
21-Jul-12 15:28 35.965351 -144.528714 279 425ft 124kts
21-Jul-12 15:29 35.969028 -144.554046 281 5ft 37kts
21-Jul-12 15:30 35.970114 -144.560625 281 3ft 15kts
21-Jul-12 15:31 35.970413 -144.562352 282 318628ft 173kts
21-Jul-12 15:32 35.970782 -144.564479 282 32020ft 742kts
21-Jul-12 15:33 35.981348 -144.622908 282 28232ft 243kts
21-Jul-12 15:34 35.994990 -144.673185 322 25101ft 236kts
21-Jul-12 15:35 19.071397 -155.544873 0 2ft 2kts
21-Jul-12 15:36 19.071397 -155.544873 0 2ft 2kts
21-Jul-12 15:37 56.893987 -154.270509 66 207ft 0kts
21-Jul-12 15:38 56.893987 -154.270509 66 207ft 0kts
21-Jul-12 15:39 56.893987 -154.270509 66 207ft 0kts
21-Jul-12 15:40 55.113390 -153.319104 66 30382ft 109kts
21-Jul-12 15:41 -54.498850 158.938147 148 22ft 0kts
21-Jul-12 15:42 81.405022 -76.895481 25 14ft 0kts
21-Jul-12 15:43 22.918404 -156.692776 359 8ft 125kts
21-Jul-12 15:44 22.942861 -156.693146 358 685ft 215kts
21-Jul-12 15:45 22.946252 -156.693278 357 855ft 219kts
21-Jul-12 15:46 22.986311 -156.755720 289 3875ft 317kts
21-Jul-12 15:47 23.013878 -156.849213 287 6501ft 331kts
21-Jul-12 15:48 23.040891 -156.947048 286 9507ft 346kts
21-Jul-12 15:49 23.056800 -157.005641 286 11252ft 355kts
21-Jul-12 15:50 23.085061 -157.110335 286 14261ft 371kts
21-Jul-12 15:51 23.102023 -157.171620 286 15968ft 380kts
21-Jul-12 15:52 23.132499 -157.284118 286 18988ft 397kts
21-Jul-12 15:53 23.163877 -157.401320 286 21992ft 410kts
21-Jul-12 15:54 23.195651 -157.520581 286 24959ft 410kts
21-Jul-12 15:55 23.226809 -157.637953 286 27874ft 396kts
21-Jul-12 15:56 23.256151 -157.748857 286 30702ft 364kts
21-Jul-12 15:57 23.281886 -157.846440 286 33314ft 302kts
21-Jul-12 15:58 23.304923 -157.933944 286 33491ft 300kts
21-Jul-12 15:59 23.327760 -158.020916 286 33499ft 299kts
21-Jul-12 16:00 23.350586 -158.108030 286 33496ft 298kts
21-Jul-12 16:01 23.374090 -158.195604 286 33228ft 310kts
21-Jul-12 16:02 23.399129 -158.290831 285 32668ft 347kts
21-Jul-12 16:03 23.426758 -158.396937 285 32602ft 379kts
21-Jul-12 16:04 23.456762 -158.512687 285 32602ft 416kts
21-Jul-12 16:06 23.523415 -158.771336 285 32739ft 446kts
21-Jul-12 16:07 23.555924 -158.898347 285 34537ft 438kts
21-Jul-12 16:08 23.574357 -158.970345 285 34576ft 456kts
21-Jul-12 16:09 23.604663 -159.089287 285 34578ft 487kts
21-Jul-12 16:10 23.637618 -159.216276 285 34563ft 504kts
21-Jul-12 16:11 23.640510 -159.227548 285 34561ft 504kts
21-Jul-12 16:12 23.670624 -159.345990 285 34560ft 504kts
21-Jul-12 16:13 23.692526 -159.432779 285 34560ft 504kts
21-Jul-12 16:14 23.729601 -159.580336 285 34560ft 504kts
21-Jul-12 16:15 23.766543 -159.728040 285 34560ft 504kts
21-Jul-12 16:16 23.803353 -159.875864 285 34560ft 504kts
21-Jul-12 16:17 23.830668 -159.985980 285 34560ft 504kts
21-Jul-12 16:18 23.867365 -160.133762 285 34560ft 504kts
21-Jul-12 16:19 23.904455 -160.281700 285 34560ft 504kts
21-Jul-12 16:20 23.940749 -160.429547 284 34560ft 504kts
21-Jul-12 16:21 23.976913 -160.577825 284 34560ft 504kts
21-Jul-12 16:22 24.011277 -160.719383 284 34560ft 504kts
21-Jul-12 16:23 24.047063 -160.867456 284 34560ft 504kts
21-Jul-12 16:24 24.082835 -161.016146 284 34560ft 504kts
21-Jul-12 16:25 24.118801 -161.164462 284 34560ft 504kts
21-Jul-12 16:26 24.154617 -161.312775 284 34560ft 504kts
21-Jul-12 16:27 24.189951 -161.461454 284 34560ft 504kts
21-Jul-12 16:28 24.225117 -161.610320 284 34560ft 504kts
21-Jul-12 16:29 24.260061 -161.758964 284 34560ft 504kts
21-Jul-12 16:30 24.294843 -161.907616 284 34560ft 504kts
21-Jul-12 16:31 24.328849 -162.053629 284 34560ft 504kts
21-Jul-12 16:32 24.364322 -162.203801 284 34560ft 504kts
21-Jul-12 16:33 24.398619 -162.351309 284 34560ft 504kts
21-Jul-12 16:34 24.432688 -162.499557 284 34560ft 504kts
21-Jul-12 16:35 24.466981 -162.649621 284 34560ft 504kts
21-Jul-12 16:36 24.501187 -162.800049 284 34560ft 504kts
21-Jul-12 16:37 24.534751 -162.948382 284 34560ft 504kts
21-Jul-12 16:38 24.568326 -163.097502 284 34560ft 504kts
21-Jul-12 16:39 24.602843 -163.247864 283 34560ft 504kts
21-Jul-12 16:40 24.636360 -163.397548 283 34560ft 504kts
21-Jul-12 16:41 24.669381 -163.546339 283 34560ft 504kts
21-Jul-12 16:42 24.702704 -163.697315 283 34560ft 504kts
21-Jul-12 16:43 24.735393 -163.846173 283 34560ft 504kts
21-Jul-12 16:44 24.767790 -163.994446 283 34560ft 504kts
21-Jul-12 16:45 24.795259 -164.120481 283 34559ft 504kts
21-Jul-12 16:46 24.833870 -164.294982 283 34560ft 504kts
21-Jul-12 16:47 24.860928 -164.420347 283 34560ft 504kts
21-Jul-12 16:48 24.892942 -164.569717 283 34560ft 504kts
21-Jul-12 16:49 24.924911 -164.719703 283 34560ft 504kts
21-Jul-12 16:50 24.956695 -164.869614 283 34560ft 504kts
21-Jul-12 16:51 24.988843 -165.022040 283 34560ft 504kts
21-Jul-12 16:52 25.021132 -165.173516 283 34560ft 504kts
21-Jul-12 16:53 25.052736 -165.322924 282 34560ft 504kts
21-Jul-12 16:54 25.084251 -165.474515 282 34560ft 504kts
21-Jul-12 16:55 25.115420 -165.625469 282 34560ft 504kts
21-Jul-12 16:56 25.146025 -165.774525 282 34560ft 504kts
21-Jul-12 16:57 25.177264 -165.927505 282 34560ft 504kts
21-Jul-12 16:58 25.207802 -166.077876 282 34560ft 504kts
21-Jul-12 16:59 25.238497 -166.226075 282 34560ft 504kts
21-Jul-12 17:00 25.269095 -166.377362 282 34560ft 504kts
21-Jul-12 17:01 25.299667 -166.530294 282 34560ft 504kts
21-Jul-12 17:02 25.329855 -166.682265 282 34560ft 504kts
21-Jul-12 17:03 25.359855 -166.834168 282 34560ft 504kts
21-Jul-12 17:04 25.389446 -166.984853 282 34560ft 504kts
21-Jul-12 17:05 25.419271 -167.136559 282 34560ft 504kts
21-Jul-12 17:06 25.448794 -167.285070 282 34560ft 504kts
21-Jul-12 17:07 25.478734 -167.439697 282 34560ft 504kts
21-Jul-12 17:08 25.507524 -167.589669 282 34560ft 504kts
21-Jul-12 17:09 25.536633 -167.742237 282 34560ft 504kts
21-Jul-12 17:10 25.565509 -167.894486 282 34560ft 504kts
21-Jul-12 17:11 25.594668 -168.049184 282 34560ft 504kts
21-Jul-12 17:12 25.623802 -168.201059 281 34560ft 504kts
21-Jul-12 17:13 25.652337 -168.352623 281 34560ft 504kts
21-Jul-12 17:14 25.680696 -168.505619 281 34560ft 504kts
21-Jul-12 17:15 25.708619 -168.657368 281 34560ft 504kts
21-Jul-12 17:16 25.736382 -168.809191 281 34560ft 504kts
21-Jul-12 17:17 25.747246 -168.868857 281 34560ft 504kts
21-Jul-12 17:18 25.751999 -168.895006 281 34560ft 504kts
21-Jul-12 17:19 25.775635 -169.025459 281 34560ft 504kts
21-Jul-12 17:20 25.803839 -169.178951 281 34559ft 504kts
21-Jul-12 17:21 25.831537 -169.331341 281 34560ft 504kts
21-Jul-12 17:22 25.858762 -169.484106 281 34560ft 504kts
21-Jul-12 17:23 25.885814 -169.637122 281 34560ft 504kts
21-Jul-12 17:24 25.912205 -169.787375 281 34560ft 504kts
21-Jul-12 17:25 25.938770 -169.939594 281 34560ft 504kts
21-Jul-12 17:26 25.961561 -170.070975 281 34560ft 504kts
21-Jul-12 17:27 25.992614 -170.246301 280 34560ft 504kts
21-Jul-12 17:29 26.041280 -170.530378 280 34560ft 504kts
21-Jul-12 17:30 26.067046 -170.682785 280 34560ft 504kts
21-Jul-12 17:31 26.092664 -170.835349 280 34560ft 504kts
21-Jul-12 17:32 26.118103 -170.987873 280 34560ft 504kts
21-Jul-12 17:33 26.144121 -171.143314 280 34560ft 504kts
21-Jul-12 17:34 26.169491 -171.293543 280 34560ft 504kts
21-Jul-12 17:35 26.194302 -171.444798 280 34560ft 504kts
21-Jul-12 17:36 26.219617 -171.600710 280 34560ft 504kts
21-Jul-12 17:37 26.244342 -171.754133 280 34560ft 504kts
21-Jul-12 17:38 26.268998 -171.908217 280 34560ft 504kts
21-Jul-12 17:39 26.293370 -172.061610 280 34560ft 504kts
21-Jul-12 17:40 26.318246 -172.214730 280 34560ft 504kts
21-Jul-12 17:41 26.342429 -172.367426 279 34560ft 504kts
21-Jul-12 17:42 26.366358 -172.521080 279 34560ft 504kts
21-Jul-12 17:43 26.390649 -172.678417 279 34560ft 504kts
21-Jul-12 17:44 26.413903 -172.830184 279 34560ft 504kts
21-Jul-12 17:45 26.437645 -172.986287 279 34560ft 504kts
21-Jul-12 17:46 26.460950 -173.139179 279 34560ft 504kts
21-Jul-12 17:47 26.484747 -173.293395 279 34560ft 504kts
21-Jul-12 17:48 26.507814 -173.447896 279 34560ft 504kts
21-Jul-12 17:49 26.530422 -173.601026 279 34560ft 504kts
21-Jul-12 17:50 26.553159 -173.756297 279 34559ft 504kts
21-Jul-12 17:51 26.575655 -173.911151 279 34560ft 504kts
21-Jul-12 17:52 26.597737 -174.064368 279 34560ft 504kts
21-Jul-12 17:53 26.620662 -174.219388 279 34560ft 504kts
21-Jul-12 17:54 26.642544 -174.371805 278 34560ft 504kts
21-Jul-12 17:55 26.664750 -174.529362 278 34560ft 504kts
21-Jul-12 17:56 26.686076 -174.682117 278 34560ft 504kts
21-Jul-12 17:57 26.707953 -174.840142 278 34560ft 504kts
21-Jul-12 17:58 26.729376 -174.996182 278 34560ft 504kts
21-Jul-12 17:59 26.750928 -175.151905 279 34560ft 504kts
21-Jul-12 18:00 26.772527 -175.307355 278 34560ft 504kts
21-Jul-12 18:01 26.793304 -175.461952 278 34560ft 504kts
21-Jul-12 18:02 26.813989 -175.617719 278 34560ft 504kts
21-Jul-12 18:03 26.834493 -175.773533 278 34560ft 504kts
21-Jul-12 18:04 26.854766 -175.928948 278 34560ft 504kts
21-Jul-12 18:05 26.871278 -176.056549 278 34560ft 504kts
21-Jul-12 18:06 26.892036 -176.212587 278 34560ft 504kts
21-Jul-12 18:07 26.915507 -176.394851 278 34560ft 504kts
21-Jul-12 18:09 26.951380 -176.680662 278 34560ft 504kts
21-Jul-12 18:10 26.970453 -176.834714 278 34560ft 504kts
21-Jul-12 18:11 26.989665 -176.991341 278 34560ft 504kts
21-Jul-12 18:12 27.008910 -177.147182 278 34560ft 504kts
21-Jul-12 18:13 27.028415 -177.303814 277 34560ft 504kts
21-Jul-12 18:14 27.047139 -177.460125 277 34560ft 504kts
21-Jul-12 18:15 27.065400 -177.614657 277 34560ft 504kts
21-Jul-12 18:16 27.083674 -177.770885 277 34560ft 504kts
21-Jul-12 18:17 27.101866 -177.927971 277 34560ft 504kts
21-Jul-12 18:18 27.119600 -178.082622 277 34560ft 504kts
21-Jul-12 18:19 27.137874 -178.236409 277 34560ft 504kts
21-Jul-12 18:20 27.155790 -178.393896 277 34560ft 504kts
21-Jul-12 18:21 27.173216 -178.550282 277 34560ft 504kts
21-Jul-12 18:22 27.190344 -178.705788 277 34560ft 504kts
21-Jul-12 18:23 27.207444 -178.862693 277 34560ft 504kts
21-Jul-12 18:24 27.224459 -179.019997 277 34558ft 504kts
21-Jul-12 18:25 27.241955 -179.175956 276 34560ft 504kts
21-Jul-12 18:26 27.258483 -179.331348 276 34560ft 504kts
21-Jul-12 18:27 27.274622 -179.485755 276 34560ft 504kts
21-Jul-12 18:28 27.290944 -179.643767 276 34560ft 504kts
21-Jul-12 18:29 27.306975 -179.800739 276 34560ft 504kts
21-Jul-12 18:30 27.322687 -179.956314 276 34560ft 504kts
21-Jul-12 18:31 27.338344 179.887035 276 34559ft 504kts
21-Jul-12 18:32 27.354612 179.731128 276 34560ft 504kts
21-Jul-12 18:33 27.370153 179.573270 276 34560ft 504kts
21-Jul-12 18:34 27.385330 179.416045 276 34560ft 504kts
21-Jul-12 18:35 27.400404 179.257840 276 34560ft 504kts
21-Jul-12 18:36 27.415170 179.100952 276 34560ft 504kts
21-Jul-12 18:37 27.429726 178.944399 276 34560ft 504kts
21-Jul-12 18:38 27.444746 178.788623 276 34560ft 504kts
21-Jul-12 18:39 27.459467 178.629579 275 34560ft 504kts
21-Jul-12 18:40 27.473447 178.473866 275 34560ft 504kts
21-Jul-12 18:41 27.487453 178.315480 275 34560ft 504kts
21-Jul-12 18:42 27.501112 178.158940 275 34560ft 504kts
21-Jul-12 18:43 27.514498 178.003500 275 34560ft 504kts
21-Jul-12 18:44 27.528439 177.843898 275 34560ft 504kts
21-Jul-12 18:45 27.542083 177.688058 275 34560ft 504kts
21-Jul-12 18:46 27.553052 177.556497 275 34560ft 504kts
21-Jul-12 18:47 27.565963 177.398725 275 34560ft 504kts
21-Jul-12 18:48 27.578585 177.242048 275 34560ft 504kts
21-Jul-12 18:49 27.591066 177.084863 275 34560ft 504kts
21-Jul-12 18:50 27.603450 176.926604 275 34560ft 504kts
21-Jul-12 18:51 27.616396 176.769264 275 34560ft 504kts
21-Jul-12 18:52 27.628644 176.611159 274 34560ft 504kts
21-Jul-12 18:53 27.640432 176.453994 274 34560ft 504kts
21-Jul-12 18:54 27.652006 176.296942 274 34560ft 504kts
21-Jul-12 18:55 27.663503 176.138427 274 34560ft 504kts
21-Jul-12 18:56 27.674749 175.980866 274 34560ft 504kts
21-Jul-12 18:57 27.686424 175.822407 274 34560ft 504kts
21-Jul-12 18:58 27.697693 175.666060 274 34560ft 504kts
21-Jul-12 18:59 27.708551 175.507159 274 34560ft 504kts
21-Jul-12 19:00 27.713077 175.439803 274 34560ft 504kts
21-Jul-12 19:01 27.713308 175.436350 274 34560ft 504kts
21-Jul-12 19:02 27.717568 175.372429 274 34560ft 504kts
21-Jul-12 19:03 27.725697 175.249186 274 34558ft 504kts
21-Jul-12 19:04 27.735880 175.092332 274 34560ft 504kts
21-Jul-12 19:05 27.746029 174.933188 274 34560ft 504kts
21-Jul-12 19:06 27.756661 174.775968 274 34560ft 504kts
21-Jul-12 19:07 27.766623 174.618161 273 34560ft 504kts
21-Jul-12 19:08 27.776208 174.459826 273 34560ft 504kts
21-Jul-12 19:09 27.785496 174.302970 273 34560ft 504kts
21-Jul-12 19:10 27.794781 174.143009 273 34560ft 504kts
21-Jul-12 19:11 27.803720 173.985858 273 34560ft 504kts
21-Jul-12 19:12 27.813074 173.827275 273 34560ft 504kts
21-Jul-12 19:13 27.822180 173.669546 273 34560ft 504kts
21-Jul-12 19:14 27.830713 173.511118 273 34560ft 504kts
21-Jul-12 19:15 27.838982 173.353168 273 34560ft 504kts
21-Jul-12 19:16 27.847029 173.195869 273 34560ft 504kts
21-Jul-12 19:17 27.854950 173.037501 273 34560ft 504kts
21-Jul-12 19:18 27.862732 172.879379 273 34560ft 504kts
21-Jul-12 19:19 27.871214 172.720122 273 34560ft 504kts
21-Jul-12 19:20 27.878660 172.562912 272 34560ft 504kts
21-Jul-12 19:21 27.885502 172.412749 272 34560ft 504kts
21-Jul-12 19:22 27.892538 172.254076 272 34560ft 504kts
21-Jul-12 19:23 27.899419 172.094728 272 34560ft 504kts
21-Jul-12 19:24 27.906086 171.936086 272 34560ft 504kts
21-Jul-12 19:25 27.912146 171.804146 272 34560ft 504kts
21-Jul-12 19:26 27.918878 171.644912 272 34560ft 504kts
21-Jul-12 19:27 27.925027 171.487555 272 34560ft 504kts
21-Jul-12 19:28 27.930961 171.330031 272 34560ft 504kts
21-Jul-12 19:29 27.936771 171.170793 272 34560ft 504kts
21-Jul-12 19:30 27.942297 171.014445 272 34560ft 504kts
21-Jul-12 19:31 27.947995 170.855879 272 34560ft 504kts
21-Jul-12 19:32 27.953962 170.696535 272 34560ft 504kts
21-Jul-12 19:33 27.959067 170.539464 272 34560ft 504kts
21-Jul-12 19:34 27.963970 170.380446 272 34560ft 504kts
21-Jul-12 19:35 27.968652 170.222376 272 34560ft 504kts
21-Jul-12 19:36 27.973188 170.063002 272 34560ft 504kts
21-Jul-12 19:37 27.977483 169.905785 272 34560ft 504kts
21-Jul-12 19:38 27.982527 169.746585 271 34560ft 504kts
21-Jul-12 19:39 27.986677 169.587868 271 34560ft 504kts
21-Jul-12 19:40 27.990462 169.430269 271 34560ft 504kts
21-Jul-12 19:41 27.994037 169.273172 271 34560ft 504kts
21-Jul-12 19:42 27.997398 169.117611 271 34560ft 504kts
21-Jul-12 19:43 28.000480 168.967228 271 34560ft 504kts
21-Jul-12 19:44 28.001499 168.915680 271 34560ft 504kts
21-Jul-12 19:45 28.005346 168.757783 271 34560ft 504kts
21-Jul-12 19:46 28.006830 168.684156 271 34560ft 504kts
21-Jul-12 19:47 28.009679 168.524330 271 34560ft 504kts
21-Jul-12 19:48 28.012250 168.365966 271 34560ft 504kts
21-Jul-12 19:49 28.014631 168.207592 271 34560ft 504kts
21-Jul-12 19:50 28.016836 168.048761 271 34560ft 504kts
21-Jul-12 19:51 28.018852 167.890806 270 34559ft 504kts
21-Jul-12 19:52 28.021610 167.731269 270 34560ft 504kts
21-Jul-12 19:53 28.023412 167.572612 270 34560ft 504kts
21-Jul-12 19:54 28.024899 167.414550 270 34560ft 504kts
21-Jul-12 19:55 28.026201 167.254736 270 34560ft 504kts
21-Jul-12 19:56 28.027304 167.097005 270 34560ft 504kts
21-Jul-12 19:57 28.028240 166.936648 270 34560ft 504kts
21-Jul-12 19:58 28.029747 166.779288 270 34560ft 504kts
21-Jul-12 19:59 28.030587 166.619622 270 34560ft 504kts
21-Jul-12 20:00 28.031000 166.460950 270 34560ft 504kts
21-Jul-12 20:01 28.031201 166.302458 270 34560ft 504kts
21-Jul-12 20:02 28.031216 166.142744 270 34560ft 504kts
21-Jul-12 20:03 28.031050 165.984938 270 34560ft 504kts
21-Jul-12 20:04 28.031073 165.853356 270 34560ft 504kts
21-Jul-12 20:06 28.030655 165.535222 269 34560ft 504kts
21-Jul-12 20:07 28.029796 165.375686 269 34560ft 504kts
21-Jul-12 20:08 28.028749 165.217227 269 34560ft 504kts
21-Jul-12 20:09 28.027514 165.058006 269 34560ft 504kts
21-Jul-12 20:10 28.026105 164.899856 269 34560ft 504kts
21-Jul-12 20:11 28.025399 164.740869 269 34560ft 504kts
21-Jul-12 20:12 28.023781 164.581611 269 34560ft 504kts
21-Jul-12 20:13 28.021842 164.423002 269 34560ft 504kts
21-Jul-12 20:14 28.019741 164.267176 269 34545ft 484kts
21-Jul-12 20:15 28.017444 164.110081 269 34562ft 504kts
21-Jul-12 20:16 28.014940 163.951287 269 34560ft 504kts
21-Jul-12 20:17 28.012971 163.792959 269 34560ft 504kts
21-Jul-12 20:18 28.010413 163.633305 268 34560ft 504kts
21-Jul-12 20:19 28.007414 163.475108 268 34560ft 504kts
21-Jul-12 20:20 28.004186 163.316359 268 34560ft 504kts
21-Jul-12 20:21 28.000781 163.158054 268 34560ft 504kts
21-Jul-12 20:22 27.997185 162.999358 268 34560ft 504kts
21-Jul-12 20:23 27.993832 162.841443 268 34560ft 504kts
21-Jul-12 20:24 27.990466 162.683020 268 34560ft 504kts
21-Jul-12 20:25 27.986435 162.525556 268 34560ft 504kts
21-Jul-12 20:26 27.983444 162.414739 268 34560ft 504kts
21-Jul-12 20:27 27.979007 162.256392 268 34560ft 504kts
21-Jul-12 20:28 27.974387 162.098119 268 34560ft 504kts
21-Jul-12 20:29 27.969580 161.939643 268 34560ft 504kts
21-Jul-12 20:30 27.965365 161.781575 268 34560ft 504kts
21-Jul-12 20:31 27.960492 161.623594 267 34560ft 504kts
21-Jul-12 20:32 27.955175 161.465065 267 34560ft 504kts
21-Jul-12 20:33 27.949594 161.305155 267 34560ft 504kts
21-Jul-12 20:34 27.943928 161.148053 267 34560ft 504kts
21-Jul-12 20:35 27.937993 160.988600 267 34560ft 504kts
21-Jul-12 20:36 27.932392 160.829708 267 34560ft 504kts
21-Jul-12 20:37 27.926695 160.672653 267 34560ft 504kts
21-Jul-12 20:38 27.920293 160.513521 267 34560ft 504kts
21-Jul-12 20:39 27.913678 160.355112 267 34560ft 504kts
21-Jul-12 20:40 27.906870 160.196617 267 34560ft 504kts
21-Jul-12 20:41 27.899921 160.039086 267 34560ft 504kts
21-Jul-12 20:42 27.892759 159.879624 267 34559ft 504kts
21-Jul-12 20:43 27.886288 159.721169 266 34560ft 504kts
21-Jul-12 20:44 27.880145 159.589187 266 34560ft 504kts
21-Jul-12 20:45 27.872507 159.431257 266 34560ft 504kts
21-Jul-12 20:46 27.864670 159.273399 266 34560ft 504kts
21-Jul-12 20:47 27.855206 159.087470 266 34560ft 504kts
21-Jul-12 20:48 27.848429 158.957264 266 34560ft 504kts
21-Jul-12 20:49 27.840660 158.798019 266 34560ft 504kts
21-Jul-12 20:50 27.832499 158.641206 266 34560ft 504kts
21-Jul-12 20:51 27.823745 158.482338 266 34560ft 504kts
21-Jul-12 20:52 27.814862 158.325132 266 34560ft 504kts
21-Jul-12 20:53 27.805707 158.166419 266 34560ft 504kts
21-Jul-12 20:54 27.796360 158.007554 266 34560ft 504kts
21-Jul-12 20:55 27.787229 157.849718 266 34560ft 504kts
21-Jul-12 20:56 27.778291 157.692918 266 34560ft 504kts
21-Jul-12 20:57 27.768483 157.534012 265 34560ft 504kts
21-Jul-12 20:58 27.758430 157.375345 265 34560ft 504kts
21-Jul-12 20:59 27.748233 157.217419 265 34560ft 504kts
21-Jul-12 21:00 27.737844 157.059355 265 34560ft 504kts
21-Jul-12 21:01 27.729872 156.939907 265 34560ft 504kts
21-Jul-12 21:02 27.726452 156.888980 265 34558ft 504kts
21-Jul-12 21:03 27.726452 156.888980 265 34558ft 504kts
21-Jul-12 21:04 27.726452 156.888980 265 34558ft 504kts
21-Jul-12 21:05 27.726452 156.888980 265 34558ft 504kts
21-Jul-12 21:06 27.726452 156.888980 265 34558ft 504kts
21-Jul-12 21:07 27.718760 156.763760 265 34560ft 504kts
21-Jul-12 21:08 27.708107 156.606202 265 34560ft 504kts
21-Jul-12 21:09 27.697134 156.449403 265 34560ft 504kts
21-Jul-12 21:10 27.685884 156.291577 265 34560ft 504kts
21-Jul-12 21:11 27.674474 156.134092 265 34560ft 504kts
21-Jul-12 21:12 27.662864 155.976346 265 34560ft 504kts
21-Jul-12 21:13 27.651611 155.818091 265 34560ft 504kts
21-Jul-12 21:14 27.640154 155.661267 265 34560ft 504kts
21-Jul-12 21:15 27.628025 155.503078 264 34560ft 504kts
21-Jul-12 21:16 27.615764 155.346160 264 34560ft 504kts
21-Jul-12 21:17 27.603182 155.187556 264 34560ft 504kts
21-Jul-12 21:18 27.590507 155.030063 264 34560ft 504kts
21-Jul-12 21:19 27.577749 154.872356 265 34559ft 504kts
21-Jul-12 21:20 27.565549 154.714846 264 34560ft 504kts
21-Jul-12 21:21 27.552483 154.557768 264 34560ft 504kts
21-Jul-12 21:22 27.539160 154.400969 264 34560ft 504kts
21-Jul-12 21:23 27.525576 154.243382 264 34560ft 504kts
21-Jul-12 21:24 27.511900 154.086816 264 34560ft 504kts
21-Jul-12 21:25 27.498078 153.930624 264 34560ft 504kts
21-Jul-12 21:26 27.484648 153.771798 264 34560ft 504kts
21-Jul-12 21:27 27.473076 153.641658 264 34560ft 504kts
21-Jul-12 21:28 27.458801 153.485571 264 34560ft 504kts
21-Jul-12 21:29 27.441694 153.301556 264 34560ft 504kts
21-Jul-12 21:30 27.429351 153.170395 264 34560ft 504kts
21-Jul-12 21:31 27.414404 153.013289 264 34560ft 504kts
21-Jul-12 21:32 27.407647 152.942886 264 34560ft 504kts
21-Jul-12 21:33 27.400177 152.863420 264 34560ft 504kts
21-Jul-12 21:34 27.386637 152.716906 263 34560ft 504kts
21-Jul-12 21:35 27.371134 152.558256 263 34560ft 504kts
21-Jul-12 21:36 27.355576 152.401916 263 34560ft 504kts
21-Jul-12 21:37 27.339800 152.245305 263 34560ft 504kts
21-Jul-12 21:38 27.323723 152.087513 263 34560ft 504kts
21-Jul-12 21:39 27.307645 151.931476 263 34560ft 504kts
21-Jul-12 21:40 27.292045 151.774300 263 34560ft 504kts
21-Jul-12 21:41 27.275822 151.617944 263 34560ft 504kts
21-Jul-12 21:42 27.259237 151.461883 263 34560ft 504kts
21-Jul-12 21:43 27.242397 151.305352 263 34560ft 504kts
21-Jul-12 21:44 27.225369 151.148769 263 34560ft 504kts
21-Jul-12 21:45 27.208201 150.992546 263 34560ft 504kts
21-Jul-12 21:46 27.191325 150.836601 263 34560ft 504kts
21-Jul-12 21:47 27.174235 150.679477 262 34560ft 504kts
21-Jul-12 21:48 27.156659 150.523763 262 34560ft 504kts
21-Jul-12 21:49 27.138870 150.368277 262 34560ft 504kts
21-Jul-12 21:50 27.120854 150.212421 262 34560ft 504kts
21-Jul-12 21:51 27.102510 150.055288 262 34560ft 504kts
21-Jul-12 21:52 27.084118 149.899285 262 34559ft 504kts
21-Jul-12 21:53 27.066415 149.743234 262 34560ft 504kts
21-Jul-12 21:54 27.047874 149.587605 262 34560ft 504kts
21-Jul-12 21:55 27.028943 149.431389 262 34560ft 504kts
21-Jul-12 21:56 27.010028 149.276903 262 34560ft 504kts
21-Jul-12 21:57 26.990644 149.120060 262 34560ft 504kts
21-Jul-12 21:58 26.971206 148.964232 262 34560ft 504kts
21-Jul-12 21:59 26.952239 148.808613 262 34560ft 504kts
21-Jul-12 22:00 26.932894 148.653322 261 34560ft 504kts
21-Jul-12 22:01 26.912905 148.496974 261 34560ft 504kts
21-Jul-12 22:02 26.892912 148.342299 261 34560ft 504kts
21-Jul-12 22:03 26.872633 148.186828 261 34560ft 504kts
21-Jul-12 22:04 26.852175 148.031343 261 34560ft 504kts
21-Jul-12 22:05 26.831638 147.875966 261 34559ft 504kts
21-Jul-12 22:06 26.811694 147.720708 261 34560ft 504kts
21-Jul-12 22:07 26.790758 147.564740 261 34560ft 504kts
21-Jul-12 22:08 26.769634 147.409473 261 34560ft 504kts
21-Jul-12 22:09 26.751982 147.280787 261 34560ft 504kts
21-Jul-12 22:10 26.727014 147.100272 261 34560ft 504kts
21-Jul-12 22:11 26.708941 146.970673 261 34560ft 504kts
21-Jul-12 22:12 26.687872 146.816593 261 34560ft 504kts
21-Jul-12 22:13 26.666573 146.663259 260 34560ft 504kts
21-Jul-12 22:14 26.644208 146.506216 260 34560ft 504kts
21-Jul-12 22:15 26.621965 146.351608 260 34560ft 504kts
21-Jul-12 22:16 26.599371 146.195839 260 34560ft 504kts
21-Jul-12 22:17 26.576851 146.041798 260 34560ft 504kts
21-Jul-12 22:18 26.554004 145.886598 260 34559ft 504kts
21-Jul-12 22:19 26.531997 145.732406 260 34560ft 504kts
21-Jul-12 22:20 26.509043 145.578049 260 34560ft 504kts
21-Jul-12 22:21 26.485794 145.423698 260 34560ft 504kts
21-Jul-12 22:22 26.462286 145.268897 260 34560ft 504kts
21-Jul-12 22:23 26.438762 145.115145 260 34560ft 504kts
21-Jul-12 22:25 26.387803 144.781127 260 34560ft 504kts
21-Jul-12 22:27 26.339621 144.472668 260 34560ft 504kts
21-Jul-12 22:27 26.339621 144.472668 260 34560ft 504kts
21-Jul-12 22:37 26.129532 143.170037 258 34561ft 504kts
21-Jul-12 22:38 26.111395 143.067924 259 34560ft 504kts
21-Jul-12 22:39 26.093835 142.966250 259 34560ft 504kts
21-Jul-12 22:51 25.800094 141.302051 258 34560ft 504kts
21-Jul-12 22:52 25.748542 141.023262 258 34560ft 504kts
21-Jul-12 23:10 25.548863 139.966131 258 34560ft 504kts
21-Jul-12 23:11 25.547129 139.957186 258 34560ft 504kts
21-Jul-12 23:12 25.517985 139.803864 257 34560ft 504kts
21-Jul-12 23:13 25.488674 139.652297 257 34560ft 504kts
21-Jul-12 23:14 25.458776 139.500095 257 34560ft 504kts
21-Jul-12 23:15 25.442991 139.420181 257 34560ft 504kts
21-Jul-12 23:16 25.428953 139.349318 257 34560ft 504kts
21-Jul-12 23:17 25.398598 139.196704 257 34560ft 504kts
21-Jul-12 23:18 25.368477 139.046111 257 34560ft 504kts
21-Jul-12 23:19 25.337847 138.893817 257 34559ft 504kts
21-Jul-12 23:20 25.308788 138.745980 257 34560ft 504kts
21-Jul-12 23:21 25.278349 138.595621 257 34560ft 504kts
21-Jul-12 23:22 25.247605 138.445190 257 34560ft 504kts
21-Jul-12 23:23 25.216406 138.293433 257 34560ft 504kts
21-Jul-12 23:24 25.185174 138.142350 257 34560ft 504kts
21-Jul-12 23:25 25.153777 137.991292 257 34560ft 504kts
21-Jul-12 23:26 25.122659 137.840382 257 34560ft 504kts
21-Jul-12 23:27 25.091504 137.689634 256 34560ft 504kts
21-Jul-12 23:28 25.081870 137.643774 256 34560ft 504kts
21-Jul-12 23:29 25.050543 137.495539 256 34560ft 504kts
21-Jul-12 23:30 25.024024 137.370759 256 34560ft 504kts
21-Jul-12 23:31 24.992285 137.222145 256 34560ft 504kts
21-Jul-12 23:32 24.959858 137.071096 256 34560ft 504kts
21-Jul-12 23:33 24.927322 136.920325 256 34560ft 504kts
21-Jul-12 23:34 24.895405 136.769565 256 34560ft 504kts
21-Jul-12 23:35 24.862882 136.619516 256 34560ft 504kts
21-Jul-12 23:36 24.830041 136.469559 256 34560ft 504kts
21-Jul-12 23:37 24.796977 136.319440 256 34560ft 504kts
21-Jul-12 23:38 24.763736 136.169291 256 34560ft 504kts
21-Jul-12 23:39 24.730443 136.019657 256 34560ft 504kts
21-Jul-12 23:40 24.702002 135.892404 256 34558ft 504kts
21-Jul-12 23:41 24.669140 135.742255 256 34560ft 504kts
21-Jul-12 23:42 24.635520 135.592697 255 34560ft 504kts
21-Jul-12 23:43 24.601642 135.443247 255 34560ft 504kts
21-Jul-12 23:44 24.567595 135.293843 255 34560ft 504kts
21-Jul-12 23:45 24.533316 135.144155 255 34560ft 504kts
21-Jul-12 23:46 24.498994 134.995001 255 34560ft 504kts
21-Jul-12 23:47 24.464807 134.845504 256 34560ft 504kts
21-Jul-12 23:48 24.430772 134.696712 255 34560ft 504kts
21-Jul-12 23:49 24.396025 134.547601 255 34560ft 504kts
21-Jul-12 23:50 24.361045 134.398408 255 34560ft 504kts
21-Jul-12 23:51 24.325925 134.249352 255 34560ft 504kts
21-Jul-12 23:52 24.290763 134.100819 255 34560ft 504kts
21-Jul-12 23:53 24.255320 133.951787 255 34560ft 504kts
21-Jul-12 23:54 24.220465 133.803262 255 34560ft 504kts
21-Jul-12 23:55 24.185065 133.654534 255 34560ft 504kts
21-Jul-12 23:56 24.168484 133.585587 255 34560ft 504kts
21-Jul-12 23:57 24.161982 133.558610 255 34560ft 504kts
21-Jul-12 23:58 24.161982 133.558610 255 34560ft 504kts
21-Jul-12 23:59 24.161982 133.558610 255 34560ft 504kts
22-Jul-12 00:00 24.161982 133.558610 255 34560ft 504kts
22-Jul-12 00:01 24.161982 133.558610 255 34560ft 504kts
22-Jul-12 00:02 24.161982 133.558610 255 34560ft 504kts
22-Jul-12 00:03 24.161982 133.558610 255 34560ft 504kts
22-Jul-12 00:04 24.161982 133.558610 255 34560ft 504kts
22-Jul-12 00:05 24.161982 133.558610 255 34560ft 504kts
22-Jul-12 00:06 24.161982 133.558610 255 34560ft 504kts
22-Jul-12 00:07 24.161982 133.558610 255 34560ft 504kts
22-Jul-12 00:08 24.161982 133.558610 255 34560ft 504kts
22-Jul-12 00:09 24.161982 133.558610 255 34560ft 504kts
22-Jul-12 00:10 24.161982 133.558610 255 34560ft 504kts
22-Jul-12 00:11 24.161982 133.558610 255 34560ft 504kts
22-Jul-12 00:12 24.161982 133.558610 255 34560ft 504kts
22-Jul-12 00:13 24.161982 133.558610 255 34560ft 504kts
22-Jul-12 00:14 24.161982 133.558610 255 34560ft 504kts
22-Jul-12 00:15 24.161982 133.558610 255 34560ft 504kts
22-Jul-12 00:16 24.161982 133.558610 255 34560ft 504kts
22-Jul-12 00:17 24.161982 133.558610 255 34560ft 504kts
22-Jul-12 00:18 24.161982 133.558610 255 34560ft 504kts
22-Jul-12 00:19 24.161982 133.558610 255 34560ft 504kts
22-Jul-12 00:20 24.161982 133.558610 255 34560ft 504kts
22-Jul-12 00:21 24.161982 133.558610 255 34560ft 504kts
22-Jul-12 00:22 24.161982 133.558610 255 34560ft 504kts
22-Jul-12 00:23 24.161982 133.558610 255 34560ft 504kts
22-Jul-12 00:24 24.161982 133.558610 255 34560ft 504kts
22-Jul-12 00:25 24.161982 133.558610 255 34560ft 504kts
22-Jul-12 00:26 24.161982 133.558610 255 34560ft 504kts
22-Jul-12 00:27 24.161982 133.558610 255 34560ft 504kts
22-Jul-12 00:28 24.161982 133.558610 255 34560ft 504kts
22-Jul-12 00:29 24.161982 133.558610 255 34560ft 504kts
22-Jul-12 00:30 24.161982 133.558610 255 34560ft 504kts
22-Jul-12 00:31 24.161982 133.558610 255 34560ft 504kts
22-Jul-12 00:32 24.161982 133.558610 255 34560ft 504kts
22-Jul-12 00:33 24.161982 133.558610 255 34560ft 504kts
22-Jul-12 00:34 24.161982 133.558610 255 34560ft 504kts
22-Jul-12 00:35 24.161982 133.558610 255 34560ft 504kts
22-Jul-12 00:36 24.161982 133.558610 255 34560ft 504kts
22-Jul-12 00:37 24.161982 133.558610 255 34560ft 504kts
22-Jul-12 00:38 24.161982 133.558610 255 34560ft 504kts
22-Jul-12 00:39 24.161982 133.558610 255 34560ft 504kts
22-Jul-12 00:40 24.161982 133.558610 255 34560ft 504kts
22-Jul-12 00:41 24.161982 133.558610 255 34560ft 504kts
22-Jul-12 00:42 24.161982 133.558610 255 34560ft 504kts
22-Jul-12 00:43 24.161982 133.558610 255 34560ft 504kts
22-Jul-12 00:44 24.161982 133.558610 255 34560ft 504kts
22-Jul-12 00:45 24.161982 133.558610 255 34560ft 504kts
22-Jul-12 00:46 24.161982 133.558610 255 34560ft 504kts
22-Jul-12 00:47 24.161982 133.558610 255 34560ft 504kts
22-Jul-12 00:48 24.161982 133.558610 255 34560ft 504kts
22-Jul-12 00:49 24.161982 133.558610 255 34560ft 504kts
22-Jul-12 00:52 24.161982 133.558610 255 34560ft 504kts
22-Jul-12 00:53 24.161982 133.558610 255 34560ft 504kts
22-Jul-12 00:54 24.161982 133.558610 255 34560ft 504kts
22-Jul-12 00:55 24.161982 133.558610 255 34560ft 504kts
22-Jul-12 00:56 24.161982 133.558610 255 34560ft 504kts
22-Jul-12 00:57 24.161982 133.558610 255 34560ft 504kts
22-Jul-12 00:58 24.161982 133.558610 255 34560ft 504kts
22-Jul-12 00:59 24.161982 133.558610 255 34560ft 504kts
22-Jul-12 01:00 24.161982 133.558610 255 34560ft 504kts
22-Jul-12 01:01 24.161982 133.558610 255 34560ft 504kts
22-Jul-12 01:02 24.161982 133.558610 255 34560ft 504kts
22-Jul-12 01:03 24.161982 133.558610 255 34560ft 504kts
22-Jul-12 01:04 24.161982 133.558610 255 34560ft 504kts
22-Jul-12 01:05 24.161982 133.558610 255 34560ft 504kts
22-Jul-12 01:06 24.161982 133.558610 255 34560ft 504kts
22-Jul-12 01:07 24.161982 133.558610 255 34560ft 504kts
22-Jul-12 01:08 24.161982 133.558610 255 34560ft 504kts
22-Jul-12 01:09 24.161982 133.558610 255 34560ft 504kts
22-Jul-12 01:10 24.161982 133.558610 255 34560ft 504kts
22-Jul-12 01:11 24.161982 133.558610 255 34560ft 504kts
22-Jul-12 01:12 24.161982 133.558610 255 34560ft 504kts
22-Jul-12 01:13 24.161982 133.558610 255 34560ft 504kts
22-Jul-12 01:14 24.161982 133.558610 255 34560ft 504kts
22-Jul-12 01:15 24.161982 133.558610 255 34560ft 504kts
22-Jul-12 01:16 24.161982 133.558610 255 34560ft 504kts
22-Jul-12 01:17 24.161982 133.558610 255 34560ft 504kts
22-Jul-12 01:18 24.161982 133.558610 255 34560ft 504kts
22-Jul-12 01:19 24.161982 133.558610 255 34560ft 504kts
22-Jul-12 01:20 24.161982 133.558610 255 34560ft 504kts
22-Jul-12 01:21 24.161982 133.558610 255 34560ft 504kts
22-Jul-12 01:22 24.161982 133.558610 255 34560ft 504kts
22-Jul-12 01:23 24.161982 133.558610 255 34560ft 504kts
22-Jul-12 01:24 24.161982 133.558610 255 34560ft 504kts
22-Jul-12 01:25 24.161982 133.558610 255 34560ft 504kts
22-Jul-12 01:26 24.161982 133.558610 255 34560ft 504kts
22-Jul-12 01:27 24.161982 133.558610 255 34560ft 504kts
22-Jul-12 01:28 24.161982 133.558610 255 34560ft 504kts
22-Jul-12 01:29 24.161982 133.558610 255 34560ft 504kts
22-Jul-12 01:30 24.161982 133.558610 255 34560ft 504kts
22-Jul-12 01:32 24.161982 133.558610 255 34560ft 504kts
22-Jul-12 01:33 24.161982 133.558610 255 34560ft 504kts
22-Jul-12 01:34 24.161982 133.558610 255 34560ft 504kts
22-Jul-12 01:35 24.161982 133.558610 255 34560ft 504kts
22-Jul-12 01:36 24.161982 133.558610 255 34560ft 504kts
22-Jul-12 01:37 24.161982 133.558610 255 34560ft 504kts
22-Jul-12 01:38 24.161982 133.558610 255 34560ft 504kts
22-Jul-12 01:39 24.161982 133.558610 255 34560ft 504kts
22-Jul-12 01:40 24.161982 133.558610 255 34560ft 504kts
22-Jul-12 01:41 24.161982 133.558610 255 34560ft 504kts
22-Jul-12 01:42 24.161982 133.558610 255 34560ft 504kts
22-Jul-12 01:43 24.161982 133.558610 255 34560ft 504kts
22-Jul-12 01:44 24.161982 133.558610 255 34560ft 504kts
22-Jul-12 01:45 24.161982 133.558610 255 34560ft 504kts
22-Jul-12 01:46 24.161982 133.558610 255 34560ft 504kts
22-Jul-12 01:47 24.161982 133.558610 255 34560ft 504kts
22-Jul-12 01:48 24.161982 133.558610 255 34560ft 504kts
22-Jul-12 01:49 24.161982 133.558610 255 34560ft 504kts
22-Jul-12 01:50 24.161982 133.558610 255 34560ft 504kts
22-Jul-12 01:51 24.161982 133.558610 255 34560ft 504kts
22-Jul-12 01:52 24.161982 133.558610 255 34560ft 504kts
22-Jul-12 01:53 24.161982 133.558610 255 34560ft 504kts
22-Jul-12 01:54 24.161982 133.558610 255 34560ft 504kts
22-Jul-12 01:55 24.161982 133.558610 255 34560ft 504kts
22-Jul-12 01:56 24.161982 133.558610 255 34560ft 504kts
22-Jul-12 01:57 24.161982 133.558610 255 34560ft 504kts
22-Jul-12 01:58 24.161982 133.558610 255 34560ft 504kts
22-Jul-12 01:59 24.161982 133.558610 255 34560ft 504kts
22-Jul-12 02:00 24.161982 133.558610 255 34560ft 504kts
22-Jul-12 02:01 24.161982 133.558610 255 34560ft 504kts
22-Jul-12 02:02 24.161982 133.558610 255 34560ft 504kts
22-Jul-12 02:03 24.161982 133.558610 255 34560ft 504kts
22-Jul-12 02:04 24.161982 133.558610 255 34560ft 504kts
22-Jul-12 02:05 24.161982 133.558610 255 34560ft 504kts
22-Jul-12 02:06 24.161982 133.558610 255 34560ft 504kts
22-Jul-12 02:07 24.161982 133.558610 255 34560ft 504kts
22-Jul-12 02:08 24.161982 133.558610 255 34560ft 504kts
22-Jul-12 02:09 24.161982 133.558610 255 34560ft 504kts
22-Jul-12 02:10 24.161982 133.558610 255 34560ft 504kts
22-Jul-12 02:11 24.161982 133.558610 255 34560ft 504kts
22-Jul-12 02:12 24.161982 133.558610 255 34560ft 504kts
22-Jul-12 02:13 24.161982 133.558610 255 34560ft 504kts
22-Jul-12 02:14 24.161982 133.558610 255 34560ft 504kts
22-Jul-12 02:15 24.161982 133.558610 255 34560ft 504kts
22-Jul-12 02:16 24.161982 133.558610 255 34560ft 504kts
22-Jul-12 02:17 24.161982 133.558610 255 34560ft 504kts
22-Jul-12 02:18 24.161982 133.558610 255 34560ft 504kts
22-Jul-12 02:19 24.161982 133.558610 255 34560ft 504kts
22-Jul-12 02:20 24.161982 133.558610 255 34560ft 504kts
22-Jul-12 02:21 24.161982 133.558610 255 34560ft 504kts
22-Jul-12 02:22 24.161982 133.558610 255 34560ft 504kts
22-Jul-12 02:23 24.161982 133.558610 255 34560ft 504kts
22-Jul-12 02:24 24.161982 133.558610 255 34560ft 504kts
22-Jul-12 02:25 24.161982 133.558610 255 34560ft 504kts
22-Jul-12 02:26 24.161982 133.558610 255 34560ft 504kts
22-Jul-12 02:27 24.161982 133.558610 255 34560ft 504kts
22-Jul-12 02:28 24.161982 133.558610 255 34560ft 504kts
22-Jul-12 02:29 24.161982 133.558610 255 34560ft 504kts
22-Jul-12 02:30 24.161982 133.558610 255 34560ft 504kts
22-Jul-12 02:31 24.161982 133.558610 255 34560ft 504kts
22-Jul-12 02:32 24.161982 133.558610 255 34560ft 504kts
22-Jul-12 02:33 24.161982 133.558610 255 34560ft 504kts
22-Jul-12 02:34 24.161982 133.558610 255 34560ft 504kts
22-Jul-12 02:35 24.161982 133.558610 255 34560ft 504kts
22-Jul-12 02:36 24.161982 133.558610 255 34560ft 504kts
22-Jul-12 02:37 24.161982 133.558610 255 34560ft 504kts
22-Jul-12 02:38 24.161982 133.558610 255 34560ft 504kts
22-Jul-12 02:39 24.161982 133.558610 255 34560ft 504kts
22-Jul-12 02:40 24.161982 133.558610 255 34560ft 504kts
22-Jul-12 02:41 24.161982 133.558610 255 34560ft 504kts
22-Jul-12 02:42 24.161982 133.558610 255 34560ft 504kts
22-Jul-12 02:43 24.161982 133.558610 255 34560ft 504kts
22-Jul-12 02:44 24.161982 133.558610 255 34560ft 504kts
22-Jul-12 02:45 24.161982 133.558610 255 34560ft 504kts
22-Jul-12 02:46 24.161982 133.558610 255 34560ft 504kts
22-Jul-12 02:47 24.161982 133.558610 255 34560ft 504kts
22-Jul-12 02:48 24.161982 133.558610 255 34560ft 504kts
22-Jul-12 02:49 24.161982 133.558610 255 34560ft 504kts
22-Jul-12 02:50 24.161982 133.558610 255 34560ft 504kts
22-Jul-12 02:51 24.161982 133.558610 255 34560ft 504kts
22-Jul-12 02:52 24.161982 133.558610 255 34560ft 504kts
22-Jul-12 02:53 24.161982 133.558610 255 34560ft 504kts
22-Jul-12 02:54 24.161982 133.558610 255 34560ft 504kts
22-Jul-12 02:55 24.161982 133.558610 255 34560ft 504kts
22-Jul-12 02:56 24.161982 133.558610 255 34560ft 504kts
22-Jul-12 02:57 24.161982 133.558610 255 34560ft 504kts
22-Jul-12 02:58 24.161982 133.558610 255 34560ft 504kts
22-Jul-12 02:59 24.161982 133.558610 255 34560ft 504kts
22-Jul-12 03:00 24.161982 133.558610 255 34560ft 504kts
22-Jul-12 03:01 24.161982 133.558610 255 34560ft 504kts
22-Jul-12 03:02 24.161982 133.558610 255 34560ft 504kts
22-Jul-12 03:03 24.161982 133.558610 255 34560ft 504kts
22-Jul-12 03:04 24.161982 133.558610 255 34560ft 504kts
22-Jul-12 03:05 24.161982 133.558610 255 34560ft 504kts
22-Jul-12 03:06 24.161982 133.558610 255 34560ft 504kts
22-Jul-12 03:07 24.161982 133.558610 255 34560ft 504kts
22-Jul-12 03:08 24.161982 133.558610 255 34560ft 504kts
22-Jul-12 03:09 24.161982 133.558610 255 34560ft 504kts
22-Jul-12 03:10 24.161982 133.558610 255 34560ft 504kts
22-Jul-12 03:11 24.161982 133.558610 255 34560ft 504kts
22-Jul-12 03:12 24.161982 133.558610 255 34560ft 504kts
22-Jul-12 03:13 24.161982 133.558610 255 34560ft 504kts
22-Jul-12 03:14 24.161982 133.558610 255 34560ft 504kts
22-Jul-12 03:15 24.161982 133.558610 255 34560ft 504kts
22-Jul-12 03:16 24.161982 133.558610 255 34560ft 504kts
22-Jul-12 03:17 24.161982 133.558610 255 34560ft 504kts
22-Jul-12 03:18 24.161982 133.558610 255 34560ft 504kts
22-Jul-12 03:19 24.161982 133.558610 255 34560ft 504kts
22-Jul-12 03:20 24.161982 133.558610 255 34560ft 504kts
22-Jul-12 03:21 24.161982 133.558610 255 34560ft 504kts
22-Jul-12 03:22 24.161982 133.558610 255 34560ft 504kts
22-Jul-12 03:23 24.161982 133.558610 255 34560ft 504kts
22-Jul-12 03:24 24.161982 133.558610 255 34560ft 504kts
22-Jul-12 03:25 24.161982 133.558610 255 34560ft 504kts
22-Jul-12 03:26 24.161982 133.558610 255 34560ft 504kts
22-Jul-12 03:27 24.161982 133.558610 255 34560ft 504kts
22-Jul-12 03:28 24.161982 133.558610 255 34560ft 504kts
22-Jul-12 03:29 24.161982 133.558610 255 34560ft 504kts
22-Jul-12 03:30 24.161982 133.558610 255 34560ft 504kts
22-Jul-12 03:31 24.161982 133.558610 255 34560ft 504kts
22-Jul-12 03:32 24.161982 133.558610 255 34560ft 504kts
22-Jul-12 03:33 24.161982 133.558610 255 34560ft 504kts
22-Jul-12 03:34 24.161982 133.558610 255 34560ft 504kts
22-Jul-12 03:35 24.161982 133.558610 255 34560ft 504kts
22-Jul-12 03:36 24.161982 133.558610 255 34560ft 504kts
22-Jul-12 03:37 24.161982 133.558610 255 34560ft 504kts
22-Jul-12 03:38 24.161982 133.558610 255 34560ft 504kts
22-Jul-12 03:39 24.161982 133.558610 255 34560ft 504kts
22-Jul-12 03:40 24.161982 133.558610 255 34560ft 504kts
22-Jul-12 03:41 24.161982 133.558610 255 34560ft 504kts
22-Jul-12 03:42 24.161982 133.558610 255 34560ft 504kts
22-Jul-12 03:43 24.161982 133.558610 255 34560ft 504kts
22-Jul-12 03:44 24.161982 133.558610 255 34560ft 504kts
22-Jul-12 03:45 24.161982 133.558610 255 34560ft 504kts
22-Jul-12 03:46 24.161982 133.558610 255 34560ft 504kts
22-Jul-12 03:47 24.161982 133.558610 255 34560ft 504kts
22-Jul-12 03:48 24.161982 133.558610 255 34560ft 504kts
22-Jul-12 03:49 24.161982 133.558610 255 34560ft 504kts
22-Jul-12 03:50 24.161982 133.558610 255 34560ft 504kts
22-Jul-12 03:51 24.161982 133.558610 255 34560ft 504kts
22-Jul-12 03:52 24.161982 133.558610 255 34560ft 504kts
22-Jul-12 03:53 24.161982 133.558610 255 34560ft 504kts
22-Jul-12 03:54 24.161982 133.558610 255 34560ft 504kts
22-Jul-12 03:55 24.161982 133.558610 255 34560ft 504kts
22-Jul-12 03:56 24.161982 133.558610 255 34560ft 504kts
22-Jul-12 03:57 24.161982 133.558610 255 34560ft 504kts
22-Jul-12 03:58 24.161982 133.558610 255 34560ft 504kts
22-Jul-12 03:59 24.161982 133.558610 255 34560ft 504kts
22-Jul-12 04:00 24.161982 133.558610 255 34560ft 504kts
22-Jul-12 04:01 24.161982 133.558610 255 34560ft 504kts
22-Jul-12 04:03 24.161982 133.558610 255 34560ft 504kts
22-Jul-12 04:04 24.161982 133.558610 255 34560ft 504kts
22-Jul-12 04:05 24.161982 133.558610 255 34560ft 504kts
22-Jul-12 04:07 24.161982 133.558610 255 34560ft 504kts
22-Jul-12 04:08 24.161982 133.558610 255 34560ft 504kts
22-Jul-12 04:09 24.161982 133.558610 255 34560ft 504kts
22-Jul-12 04:10 24.161982 133.558610 255 34560ft 504kts
22-Jul-12 04:11 24.161982 133.558610 255 34560ft 504kts
22-Jul-12 04:12 24.161982 133.558610 255 34560ft 504kts
22-Jul-12 04:13 24.161982 133.558610 255 34560ft 504kts
22-Jul-12 04:14 24.161982 133.558610 255 34560ft 504kts
22-Jul-12 04:15 24.161982 133.558610 255 34560ft 504kts
22-Jul-12 04:16 24.161982 133.558610 255 34560ft 504kts
22-Jul-12 04:17 24.161982 133.558610 255 34560ft 504kts
22-Jul-12 04:18 24.161982 133.558610 255 34560ft 504kts
22-Jul-12 04:19 24.161982 133.558610 255 34560ft 504kts
22-Jul-12 04:20 24.161982 133.558610 255 34560ft 504kts
22-Jul-12 04:21 24.161982 133.558610 255 34560ft 504kts
22-Jul-12 04:23 24.161982 133.558610 255 34560ft 504kts
22-Jul-12 04:24 24.161982 133.558610 255 34560ft 504kts
22-Jul-12 04:24 24.161982 133.558610 255 34560ft 504kts
22-Jul-12 04:25 24.161982 133.558610 255 34560ft 504kts
22-Jul-12 04:26 24.161982 133.558610 255 34560ft 504kts
22-Jul-12 04:27 24.161982 133.558610 255 34560ft 504kts
22-Jul-12 04:28 24.161982 133.558610 255 34560ft 504kts
22-Jul-12 04:29 24.161982 133.558610 255 34560ft 504kts
22-Jul-12 04:30 24.161982 133.558610 255 34560ft 504kts
22-Jul-12 04:31 24.161982 133.558610 255 34560ft 504kts
22-Jul-12 04:32 24.161982 133.558610 255 34560ft 504kts
22-Jul-12 04:33 24.161982 133.558610 255 34560ft 504kts
22-Jul-12 04:34 24.161982 133.558610 255 34560ft 504kts
22-Jul-12 04:35 24.161982 133.558610 255 34560ft 504kts
22-Jul-12 04:36 24.161982 133.558610 255 34560ft 504kts
22-Jul-12 04:37 24.161982 133.558610 255 34560ft 504kts
22-Jul-12 04:38 24.161982 133.558610 255 34560ft 504kts
22-Jul-12 04:39 24.161982 133.558610 255 34560ft 504kts
22-Jul-12 04:40 24.161982 133.558610 255 34560ft 504kts
22-Jul-12 04:41 24.161982 133.558610 255 34560ft 504kts
22-Jul-12 04:42 24.161982 133.558610 255 34560ft 504kts
22-Jul-12 04:43 24.161982 133.558610 255 34560ft 504kts
22-Jul-12 04:44 24.161982 133.558610 255 34560ft 504kts
22-Jul-12 04:45 24.161982 133.558610 255 34560ft 504kts
22-Jul-12 04:46 24.161982 133.558610 255 34560ft 504kts
22-Jul-12 04:47 24.161982 133.558610 255 34560ft 504kts
22-Jul-12 04:48 24.161982 133.558610 255 34560ft 504kts
22-Jul-12 04:49 24.161982 133.558610 255 34560ft 504kts
22-Jul-12 04:50 24.161982 133.558610 255 34560ft 504kts
22-Jul-12 04:51 24.161982 133.558610 255 34560ft 504kts
22-Jul-12 04:52 24.161982 133.558610 255 34560ft 504kts
22-Jul-12 04:53 24.161982 133.558610 255 34560ft 504kts
22-Jul-12 04:54 24.161982 133.558610 255 34560ft 504kts
22-Jul-12 04:55 24.161982 133.558610 255 34560ft 504kts
22-Jul-12 04:56 24.161982 133.558610 255 34560ft 504kts
22-Jul-12 04:57 24.161982 133.558610 255 34560ft 504kts
22-Jul-12 04:58 24.161982 133.558610 255 34560ft 504kts
22-Jul-12 04:59 24.161982 133.558610 255 34560ft 504kts
22-Jul-12 05:00 24.161982 133.558610 255 34560ft 504kts
22-Jul-12 05:01 24.161982 133.558610 255 34560ft 504kts
22-Jul-12 05:02 24.161982 133.558610 255 34560ft 504kts
22-Jul-12 05:03 24.161982 133.558610 255 34560ft 504kts
22-Jul-12 05:04 24.161982 133.558610 255 34560ft 504kts
22-Jul-12 05:05 24.161982 133.558610 255 34560ft 504kts
22-Jul-12 05:06 24.161982 133.558610 255 34560ft 504kts
22-Jul-12 05:07 24.161982 133.558610 255 34560ft 504kts
22-Jul-12 05:08 24.161982 133.558610 255 34560ft 504kts
22-Jul-12 05:09 24.161982 133.558610 255 34560ft 504kts
22-Jul-12 05:10 24.161982 133.558610 255 34560ft 504kts
22-Jul-12 05:11 24.161982 133.558610 255 34560ft 504kts
22-Jul-12 05:12 24.161982 133.558610 255 34560ft 504kts
22-Jul-12 05:13 24.161982 133.558610 255 34560ft 504kts
22-Jul-12 05:14 24.161982 133.558610 255 34560ft 504kts
22-Jul-12 05:15 24.161982 133.558610 255 34560ft 504kts
22-Jul-12 05:16 24.161982 133.558610 255 34560ft 504kts
22-Jul-12 05:17 24.161982 133.558610 255 34560ft 504kts
22-Jul-12 05:18 24.161982 133.558610 255 34560ft 504kts
22-Jul-12 05:19 24.161982 133.558610 255 34560ft 504kts
22-Jul-12 05:20 24.161982 133.558610 255 34560ft 504kts
22-Jul-12 05:21 24.161982 133.558610 255 34560ft 504kts
22-Jul-12 05:22 24.161982 133.558610 255 34560ft 504kts
22-Jul-12 05:23 24.161982 133.558610 255 34560ft 504kts
22-Jul-12 05:24 24.161982 133.558610 255 34560ft 504kts
22-Jul-12 05:25 24.161982 133.558610 255 34560ft 504kts
22-Jul-12 05:26 24.161982 133.558610 255 34560ft 504kts
22-Jul-12 05:27 24.161982 133.558610 255 34560ft 504kts
22-Jul-12 05:28 24.161982 133.558610 255 34560ft 504kts
22-Jul-12 05:29 24.161982 133.558610 255 34560ft 504kts
22-Jul-12 05:30 24.161982 133.558610 255 34560ft 504kts
22-Jul-12 05:31 24.161982 133.558610 255 34560ft 504kts
22-Jul-12 05:32 24.161982 133.558610 255 34560ft 504kts
22-Jul-12 05:33 24.161982 133.558610 255 34560ft 504kts
22-Jul-12 05:34 24.161982 133.558610 255 34560ft 504kts
22-Jul-12 05:35 24.161982 133.558610 255 34560ft 504kts
22-Jul-12 05:36 24.161982 133.558610 255 34560ft 504kts
22-Jul-12 05:37 24.161982 133.558610 255 34560ft 504kts
22-Jul-12 05:38 24.161982 133.558610 255 34560ft 504kts
22-Jul-12 05:39 24.161982 133.558610 255 34560ft 504kts
22-Jul-12 05:40 24.161982 133.558610 255 34560ft 504kts
22-Jul-12 05:41 24.161982 133.558610 255 34560ft 504kts
22-Jul-12 05:42 24.161982 133.558610 255 34560ft 504kts
22-Jul-12 05:43 24.161982 133.558610 255 34560ft 504kts
22-Jul-12 05:44 24.161982 133.558610 255 34560ft 504kts
22-Jul-12 05:45 24.161982 133.558610 255 34560ft 504kts
22-Jul-12 05:46 24.161982 133.558610 255 34560ft 504kts
22-Jul-12 05:47 24.161982 133.558610 255 34560ft 504kts
22-Jul-12 05:48 24.161982 133.558610 255 34560ft 504kts
22-Jul-12 05:49 24.161982 133.558610 255 34560ft 504kts
22-Jul-12 05:50 24.161982 133.558610 255 34560ft 504kts
22-Jul-12 05:51 24.161982 133.558610 255 34560ft 504kts
22-Jul-12 05:52 24.161982 133.558610 255 34560ft 504kts
22-Jul-12 05:53 24.161982 133.558610 255 34560ft 504kts
22-Jul-12 05:54 24.161982 133.558610 255 34560ft 504kts
22-Jul-12 05:55 24.161982 133.558610 255 34560ft 504kts
22-Jul-12 05:56 24.161982 133.558610 255 34560ft 504kts
22-Jul-12 05:57 24.161982 133.558610 255 34560ft 504kts
22-Jul-12 05:58 24.161982 133.558610 255 34560ft 504kts
22-Jul-12 05:59 24.161982 133.558610 255 34560ft 504kts
22-Jul-12 06:00 24.161982 133.558610 255 34560ft 504kts
22-Jul-12 06:01 24.161982 133.558610 255 34560ft 504kts
22-Jul-12 06:04 24.161982 133.558610 255 34560ft 504kts
22-Jul-12 06:05 24.161982 133.558610 255 34560ft 504kts
22-Jul-12 06:06 24.161982 133.558610 255 34560ft 504kts
22-Jul-12 06:07 24.161982 133.558610 255 34560ft 504kts
22-Jul-12 06:08 24.161982 133.558610 255 34560ft 504kts
22-Jul-12 06:09 24.161982 133.558610 255 34560ft 504kts
22-Jul-12 06:10 24.161982 133.558610 255 34560ft 504kts
22-Jul-12 06:11 24.161982 133.558610 255 34560ft 504kts
22-Jul-12 06:12 24.161982 133.558610 255 34560ft 504kts
22-Jul-12 06:13 24.161982 133.558610 255 34560ft 504kts
22-Jul-12 06:14 24.161982 133.558610 255 34560ft 504kts
22-Jul-12 06:15 24.161982 133.558610 255 34560ft 504kts
22-Jul-12 06:16 24.161982 133.558610 255 34560ft 504kts
22-Jul-12 06:17 24.161982 133.558610 255 34560ft 504kts
22-Jul-12 06:18 24.161982 133.558610 255 34560ft 504kts
22-Jul-12 06:19 24.161982 133.558610 255 34560ft 504kts
22-Jul-12 06:20 24.161982 133.558610 255 34560ft 504kts
22-Jul-12 06:21 24.161982 133.558610 255 34560ft 504kts
22-Jul-12 06:22 24.161982 133.558610 255 34560ft 504kts
22-Jul-12 06:23 24.161982 133.558610 255 34560ft 504kts
22-Jul-12 06:24 24.161982 133.558610 255 34560ft 504kts
22-Jul-12 06:25 24.161982 133.558610 255 34560ft 504kts
22-Jul-12 06:26 24.161982 133.558610 255 34560ft 504kts
22-Jul-12 06:27 24.161982 133.558610 255 34560ft 504kts
22-Jul-12 06:28 24.161982 133.558610 255 34560ft 504kts
22-Jul-12 06:29 24.161982 133.558610 255 34560ft 504kts
22-Jul-12 06:30 24.161982 133.558610 255 34560ft 504kts
22-Jul-12 06:31 24.161982 133.558610 255 34560ft 504kts
22-Jul-12 06:32 24.161982 133.558610 255 34560ft 504kts
22-Jul-12 06:33 24.161982 133.558610 255 34560ft 504kts
22-Jul-12 06:34 24.161982 133.558610 255 34560ft 504kts
22-Jul-12 06:35 24.161982 133.558610 255 34560ft 504kts
22-Jul-12 06:36 24.161982 133.558610 255 34560ft 504kts
22-Jul-12 06:37 24.161982 133.558610 255 34560ft 504kts
22-Jul-12 06:38 24.161982 133.558610 255 34560ft 504kts
22-Jul-12 06:39 24.161982 133.558610 255 34560ft 504kts
22-Jul-12 06:40 24.161982 133.558610 255 34560ft 504kts
22-Jul-12 06:41 24.161982 133.558610 255 34560ft 504kts
22-Jul-12 06:42 24.161982 133.558610 255 34560ft 504kts
22-Jul-12 06:43 24.161982 133.558610 255 34560ft 504kts
22-Jul-12 06:44 24.161982 133.558610 255 34560ft 504kts
22-Jul-12 06:45 24.161982 133.558610 255 34560ft 504kts
22-Jul-12 06:46 24.161982 133.558610 255 34560ft 504kts
22-Jul-12 06:47 24.161982 133.558610 255 34560ft 504kts
22-Jul-12 06:48 24.161982 133.558610 255 34560ft 504kts
22-Jul-12 06:49 24.161982 133.558610 255 34560ft 504kts
22-Jul-12 06:50 24.161982 133.558610 255 34560ft 504kts
22-Jul-12 06:51 24.161982 133.558610 255 34560ft 504kts
22-Jul-12 06:52 24.161982 133.558610 255 34560ft 504kts
22-Jul-12 06:53 24.161982 133.558610 255 34560ft 504kts
22-Jul-12 06:54 24.161982 133.558610 255 34560ft 504kts
22-Jul-12 06:55 24.161982 133.558610 255 34560ft 504kts
22-Jul-12 06:56 24.161982 133.558610 255 34560ft 504kts
22-Jul-12 06:57 24.161982 133.558610 255 34560ft 504kts
22-Jul-12 06:58 24.161982 133.558610 255 34560ft 504kts
22-Jul-12 06:59 24.161982 133.558610 255 34560ft 504kts
22-Jul-12 07:00 24.161982 133.558610 255 34560ft 504kts
22-Jul-12 07:01 24.161982 133.558610 255 34560ft 504kts
22-Jul-12 07:02 24.161982 133.558610 255 34560ft 504kts
22-Jul-12 07:03 24.161982 133.558610 255 34560ft 504kts
22-Jul-12 07:04 24.161982 133.558610 255 34560ft 504kts
22-Jul-12 07:05 24.161982 133.558610 255 34560ft 504kts
22-Jul-12 07:06 24.161982 133.558610 255 34560ft 504kts
22-Jul-12 07:07 24.161982 133.558610 255 34560ft 504kts
22-Jul-12 07:08 24.161982 133.558610 255 34560ft 504kts
22-Jul-12 07:09 24.161982 133.558610 255 34560ft 504kts
22-Jul-12 07:10 24.161982 133.558610 255 34560ft 504kts
22-Jul-12 07:11 24.161982 133.558610 255 34560ft 504kts
22-Jul-12 07:12 24.161982 133.558610 255 34560ft 504kts
22-Jul-12 07:13 24.161982 133.558610 255 34560ft 504kts
22-Jul-12 07:14 24.161982 133.558610 255 34560ft 504kts
22-Jul-12 07:15 24.161982 133.558610 255 34560ft 504kts
22-Jul-12 07:16 24.161982 133.558610 255 34560ft 504kts
22-Jul-12 07:17 24.161982 133.558610 255 34560ft 504kts
22-Jul-12 07:18 24.161982 133.558610 255 34560ft 504kts
22-Jul-12 07:20 24.161982 133.558610 255 34560ft 504kts
22-Jul-12 07:21 24.161982 133.558610 255 34560ft 504kts
22-Jul-12 07:22 24.161982 133.558610 255 34560ft 504kts
22-Jul-12 07:23 24.161982 133.558610 255 34560ft 504kts
22-Jul-12 07:24 24.161982 133.558610 255 34560ft 504kts
22-Jul-12 07:25 24.161982 133.558610 255 34560ft 504kts
22-Jul-12 07:26 24.161982 133.558610 255 34560ft 504kts
22-Jul-12 07:27 24.161982 133.558610 255 34560ft 504kts
22-Jul-12 07:28 24.161982 133.558610 255 34560ft 504kts
22-Jul-12 07:29 24.161982 133.558610 255 34560ft 504kts
22-Jul-12 07:30 24.161982 133.558610 255 34560ft 504kts
22-Jul-12 07:31 24.161982 133.558610 255 34560ft 504kts
22-Jul-12 07:32 24.161982 133.558610 255 34560ft 504kts
22-Jul-12 07:33 24.161982 133.558610 255 34560ft 504kts
22-Jul-12 07:34 24.161982 133.558610 255 34560ft 504kts
22-Jul-12 07:35 24.161982 133.558610 255 34560ft 504kts
22-Jul-12 07:36 24.161982 133.558610 255 34560ft 504kts
22-Jul-12 07:37 24.161982 133.558610 255 34560ft 504kts
22-Jul-12 07:38 24.161982 133.558610 255 34560ft 504kts
22-Jul-12 07:39 24.161982 133.558610 255 34560ft 504kts
22-Jul-12 07:40 24.161982 133.558610 255 34560ft 504kts
22-Jul-12 07:41 24.161982 133.558610 255 34560ft 504kts
22-Jul-12 07:42 24.161982 133.558610 255 34560ft 504kts
22-Jul-12 07:43 24.161982 133.558610 255 34560ft 504kts
22-Jul-12 07:44 24.161982 133.558610 255 34560ft 504kts
22-Jul-12 07:45 24.161982 133.558610 255 34560ft 504kts
22-Jul-12 07:46 24.161982 133.558610 255 34560ft 504kts
22-Jul-12 07:47 24.161982 133.558610 255 34560ft 504kts
22-Jul-12 07:48 24.161982 133.558610 255 34560ft 504kts
22-Jul-12 07:49 24.161982 133.558610 255 34560ft 504kts
22-Jul-12 07:50 24.161982 133.558610 255 34560ft 504kts
22-Jul-12 07:51 24.161982 133.558610 255 34560ft 504kts
22-Jul-12 07:52 24.161982 133.558610 255 34560ft 504kts
22-Jul-12 07:53 24.161982 133.558610 255 34560ft 504kts
22-Jul-12 07:54 24.161982 133.558610 255 34560ft 504kts
22-Jul-12 07:55 24.161982 133.558610 255 34560ft 504kts
22-Jul-12 07:56 24.161982 133.558610 255 34560ft 504kts
22-Jul-12 07:57 24.161982 133.558610 255 34560ft 504kts
22-Jul-12 07:58 24.161982 133.558610 255 34560ft 504kts
22-Jul-12 07:59 24.161982 133.558610 255 34560ft 504kts
22-Jul-12 08:00 24.161982 133.558610 255 34560ft 504kts
22-Jul-12 08:01 24.161982 133.558610 255 34560ft 504kts
22-Jul-12 08:03 24.161982 133.558610 255 34560ft 504kts
22-Jul-12 08:04 24.161982 133.558610 255 34560ft 504kts
22-Jul-12 08:05 24.161982 133.558610 255 34560ft 504kts
22-Jul-12 08:06 24.161982 133.558610 255 34560ft 504kts
22-Jul-12 08:07 24.161982 133.558610 255 34560ft 504kts
22-Jul-12 08:08 24.161982 133.558610 255 34560ft 504kts
22-Jul-12 08:09 24.161982 133.558610 255 34560ft 504kts
22-Jul-12 08:10 24.161982 133.558610 255 34560ft 504kts
22-Jul-12 08:11 24.161982 133.558610 255 34560ft 504kts
22-Jul-12 08:12 24.161982 133.558610 255 34560ft 504kts
22-Jul-12 08:13 24.161982 133.558610 255 34560ft 504kts
22-Jul-12 08:14 24.161982 133.558610 255 34560ft 504kts
22-Jul-12 08:15 24.161982 133.558610 255 34560ft 504kts
22-Jul-12 08:16 24.161982 133.558610 255 34560ft 504kts
22-Jul-12 08:17 24.161982 133.558610 255 34560ft 504kts
22-Jul-12 08:18 24.161982 133.558610 255 34560ft 504kts
22-Jul-12 08:19 24.161982 133.558610 255 34560ft 504kts
22-Jul-12 08:20 24.161982 133.558610 255 34560ft 504kts
22-Jul-12 08:21 24.161982 133.558610 255 34560ft 504kts
22-Jul-12 08:22 24.161982 133.558610 255 34560ft 504kts
22-Jul-12 08:23 24.161982 133.558610 255 34560ft 504kts
22-Jul-12 08:24 24.161982 133.558610 255 34560ft 504kts
22-Jul-12 08:25 24.161982 133.558610 255 34560ft 504kts
22-Jul-12 08:26 24.161982 133.558610 255 34560ft 504kts
22-Jul-12 08:27 24.161982 133.558610 255 34560ft 504kts
22-Jul-12 08:28 24.161982 133.558610 255 34560ft 504kts
22-Jul-12 08:29 24.141455 133.473629 255 34560ft 504kts
22-Jul-12 08:30 24.105484 133.325277 255 34560ft 504kts
22-Jul-12 08:31 24.095139 133.282739 255 34560ft 504kts
22-Jul-12 08:32 24.068273 133.172523 255 34560ft 504kts
22-Jul-12 08:33 24.035370 133.038046 255 34560ft 504kts
22-Jul-12 08:34 23.998972 132.889884 254 34562ft 504kts
22-Jul-12 08:35 23.963194 132.741583 254 34560ft 504kts
22-Jul-12 08:36 23.926650 132.593683 254 34560ft 504kts
22-Jul-12 08:37 23.889805 132.445669 254 34560ft 504kts
22-Jul-12 08:38 23.852724 132.297410 254 34560ft 504kts
22-Jul-12 08:39 23.826960 132.194785 254 34560ft 504kts
22-Jul-12 08:40 23.789704 132.046935 254 34560ft 504kts
22-Jul-12 08:41 23.752346 131.899321 254 34562ft 504kts
22-Jul-12 08:42 23.715657 131.751771 254 34560ft 504kts
22-Jul-12 08:43 23.684344 131.628532 254 34560ft 504kts
22-Jul-12 08:44 23.646673 131.481392 254 34560ft 504kts
22-Jul-12 08:45 23.608732 131.333911 254 34560ft 504kts
22-Jul-12 08:46 23.570721 131.186793 254 34560ft 504kts
22-Jul-12 08:47 23.532468 131.039357 254 34560ft 504kts
22-Jul-12 08:48 23.494281 130.892784 254 34561ft 504kts
22-Jul-12 08:49 23.456554 130.745426 254 34560ft 504kts
22-Jul-12 08:50 23.418083 130.598577 253 34560ft 504kts
22-Jul-12 08:51 23.379359 130.451735 253 34560ft 504kts
22-Jul-12 08:52 23.340552 130.305218 253 34560ft 504kts
22-Jul-12 08:53 23.301528 130.158487 253 34560ft 504kts
22-Jul-12 08:54 23.262376 130.011870 253 34560ft 504kts
22-Jul-12 08:55 23.223263 129.865305 254 34559ft 504kts
22-Jul-12 08:56 23.184494 129.718844 253 34560ft 504kts
22-Jul-12 08:57 23.145009 129.572445 253 34560ft 504kts
22-Jul-12 08:58 23.105379 129.426375 253 34560ft 504kts
22-Jul-12 08:59 23.065578 129.280289 253 34560ft 504kts
22-Jul-12 09:00 23.025629 129.134248 253 34560ft 504kts
22-Jul-12 09:01 22.995896 128.985068 261 34560ft 504kts
22-Jul-12 09:02 22.978619 128.834412 263 34560ft 504kts
22-Jul-12 09:03 22.962692 128.682923 263 34560ft 504kts
22-Jul-12 09:04 22.946388 128.531317 263 34560ft 504kts
22-Jul-12 09:05 22.929965 128.380203 263 34560ft 504kts
22-Jul-12 09:06 22.913429 128.229421 263 34560ft 504kts
22-Jul-12 09:07 22.896725 128.078441 263 34560ft 504kts
22-Jul-12 09:08 22.879872 127.927445 263 34560ft 504kts
22-Jul-12 09:09 22.863523 127.776006 263 34560ft 504kts
22-Jul-12 09:10 22.846574 127.625107 262 34560ft 504kts
22-Jul-12 09:11 22.829332 127.474382 262 34560ft 504kts
22-Jul-12 09:12 22.816440 127.362625 262 34560ft 504kts
22-Jul-12 09:13 22.800047 127.221528 262 34560ft 504kts
22-Jul-12 09:14 22.792822 127.159694 262 34560ft 504kts
22-Jul-12 09:15 22.775095 127.008857 262 34560ft 504kts
22-Jul-12 09:16 22.757392 126.857391 263 34560ft 504kts
22-Jul-12 09:17 22.740013 126.706996 262 34560ft 504kts
22-Jul-12 09:20 22.688236 126.279605 262 34560ft 504kts
22-Jul-12 09:21 22.669700 126.129128 262 34560ft 504kts
22-Jul-12 09:22 22.651073 125.979094 262 34560ft 504kts
22-Jul-12 09:23 22.632677 125.828358 262 34559ft 504kts
22-Jul-12 09:24 22.614101 125.677885 262 34560ft 504kts
22-Jul-12 09:25 22.595016 125.527313 262 34560ft 504kts
22-Jul-12 09:26 22.575787 125.377073 262 34560ft 504kts
22-Jul-12 09:27 22.556428 125.226975 262 34560ft 504kts
22-Jul-12 09:28 22.536828 125.076153 262 34560ft 504kts
22-Jul-12 09:29 22.517202 124.926240 262 34560ft 504kts
22-Jul-12 09:30 22.498056 124.775778 261 34560ft 504kts
22-Jul-12 09:31 22.478298 124.625622 261 34560ft 504kts
22-Jul-12 09:32 22.458242 124.475579 261 34560ft 504kts
22-Jul-12 09:33 22.438004 124.325459 261 34560ft 504kts
22-Jul-12 09:34 22.417590 124.175062 261 34560ft 504kts
22-Jul-12 09:35 22.397159 124.025566 261 34560ft 504kts
22-Jul-12 09:36 22.376600 123.875609 261 34559ft 504kts
22-Jul-12 09:37 22.356516 123.725667 261 34560ft 504kts
22-Jul-12 09:38 22.335670 123.575650 261 34560ft 504kts
22-Jul-12 09:39 22.314663 123.426078 261 34560ft 504kts
22-Jul-12 09:40 22.293496 123.276457 261 34560ft 504kts
22-Jul-12 09:41 22.272148 123.126569 261 34560ft 504kts
22-Jul-12 09:42 22.250707 122.977050 261 34560ft 504kts
22-Jul-12 09:43 22.229608 122.827779 261 34560ft 504kts
22-Jul-12 09:44 22.211243 122.677466 262 34558ft 504kts
22-Jul-12 09:45 22.189463 122.528185 260 34560ft 504kts
22-Jul-12 09:46 22.167011 122.378942 260 34560ft 504kts
22-Jul-12 09:47 22.144325 122.229438 260 34560ft 504kts
22-Jul-12 09:48 22.121496 122.079967 260 34560ft 504kts
22-Jul-12 09:49 22.098534 121.930562 260 34560ft 504kts
22-Jul-12 09:50 22.076133 121.781404 260 34560ft 504kts
22-Jul-12 09:51 22.053157 121.632546 260 34560ft 504kts
22-Jul-12 09:52 22.029807 121.483283 260 34560ft 504kts
22-Jul-12 09:53 22.006348 121.334350 260 34560ft 504kts
22-Jul-12 09:54 21.982781 121.185643 260 34560ft 504kts
22-Jul-12 09:55 21.959044 121.036763 260 34560ft 504kts
22-Jul-12 09:56 21.937092 120.899863 260 34559ft 504kts
22-Jul-12 09:57 21.941285 120.749877 277 34561ft 504kts
22-Jul-12 09:58 21.956924 120.624962 277 34560ft 504kts
22-Jul-12 09:59 21.979463 120.450542 277 34560ft 504kts
22-Jul-12 10:00 21.995771 120.325559 277 34559ft 504kts
22-Jul-12 10:01 22.014433 120.175724 278 34567ft 505kts
22-Jul-12 10:02 22.016493 120.160058 278 34560ft 504kts
22-Jul-12 10:03 22.016493 120.160058 278 34560ft 504kts
22-Jul-12 10:04 22.016493 120.160058 278 34560ft 504kts
22-Jul-12 10:05 22.016493 120.160058 278 34560ft 504kts
22-Jul-12 10:06 22.016493 120.160058 278 34560ft 504kts
22-Jul-12 10:07 22.016493 120.160058 278 34560ft 504kts
22-Jul-12 10:08 22.016493 120.160058 278 34560ft 504kts
22-Jul-12 10:09 22.016493 120.160058 278 34560ft 504kts
22-Jul-12 10:10 22.016493 120.160058 278 34560ft 504kts
22-Jul-12 10:11 22.016493 120.160058 278 34560ft 504kts
22-Jul-12 10:12 22.016493 120.160058 278 34560ft 504kts
22-Jul-12 10:13 22.016493 120.160058 278 34560ft 504kts
22-Jul-12 10:14 22.016493 120.160058 278 34560ft 504kts
22-Jul-12 10:15 22.016493 120.160058 278 34560ft 504kts
22-Jul-12 10:16 22.016493 120.160058 278 34560ft 504kts
22-Jul-12 10:17 22.016493 120.160058 278 34560ft 504kts
22-Jul-12 10:18 22.016493 120.160058 278 34560ft 504kts
22-Jul-12 10:19 22.016493 120.160058 278 34560ft 504kts
22-Jul-12 10:20 22.016493 120.160058 278 34560ft 504kts
22-Jul-12 10:21 22.016493 120.160058 278 34560ft 504kts
22-Jul-12 10:22 22.016493 120.160058 278 34560ft 504kts
22-Jul-12 10:23 22.016493 120.160058 278 34560ft 504kts
22-Jul-12 10:24 22.016493 120.160058 278 34560ft 504kts
22-Jul-12 10:25 22.016493 120.160058 278 34560ft 504kts
22-Jul-12 10:26 22.016493 120.160058 278 34560ft 504kts
22-Jul-12 10:27 22.016493 120.160058 278 34560ft 504kts
22-Jul-12 10:28 22.016493 120.160058 278 34560ft 504kts
22-Jul-12 10:29 22.016493 120.160058 278 34560ft 504kts
22-Jul-12 10:30 22.016493 120.160058 278 34560ft 504kts
22-Jul-12 10:31 22.016493 120.160058 278 34560ft 504kts
22-Jul-12 10:32 22.016493 120.160058 278 34560ft 504kts
22-Jul-12 10:33 22.016493 120.160058 278 34560ft 504kts
22-Jul-12 10:34 22.016493 120.160058 278 34560ft 504kts
22-Jul-12 10:35 22.016493 120.160058 278 34560ft 504kts
22-Jul-12 10:36 22.016493 120.160058 278 34560ft 504kts
22-Jul-12 10:37 22.016493 120.160058 278 34560ft 504kts
22-Jul-12 10:38 22.016493 120.160058 278 34560ft 504kts
22-Jul-12 10:39 22.016493 120.160058 278 34560ft 504kts
22-Jul-12 10:40 22.016493 120.160058 278 34560ft 504kts
22-Jul-12 10:41 22.016493 120.160058 278 34560ft 504kts
22-Jul-12 10:42 22.016493 120.160058 278 34560ft 504kts
22-Jul-12 10:43 22.016493 120.160058 278 34560ft 504kts
22-Jul-12 10:44 22.016493 120.160058 278 34560ft 504kts
22-Jul-12 10:45 22.016493 120.160058 278 34560ft 504kts
22-Jul-12 10:46 22.016493 120.160058 278 34560ft 504kts
22-Jul-12 10:47 22.016493 120.160058 278 34560ft 504kts
22-Jul-12 10:48 22.016493 120.160058 278 34560ft 504kts
22-Jul-12 10:49 22.016493 120.160058 278 34560ft 504kts
22-Jul-12 10:50 22.016493 120.160058 278 34560ft 504kts
22-Jul-12 10:51 22.016493 120.160058 278 34560ft 504kts
22-Jul-12 10:52 22.016493 120.160058 278 34560ft 504kts
22-Jul-12 10:53 22.016493 120.160058 278 34560ft 504kts
22-Jul-12 10:54 22.016493 120.160058 278 34560ft 504kts
22-Jul-12 10:55 22.016493 120.160058 278 34560ft 504kts
22-Jul-12 10:56 22.029884 120.056178 277 34560ft 504kts
22-Jul-12 10:57 22.047354 119.917677 277 34560ft 504kts
22-Jul-12 10:58 22.051408 119.885486 277 34559ft 504kts
22-Jul-12 10:59 22.058441 119.832475 277 34560ft 504kts
22-Jul-12 11:00 22.073907 119.711154 277 34560ft 504kts
22-Jul-12 11:01 22.089765 119.583384 277 34560ft 504kts
22-Jul-12 11:02 22.108168 119.433537 277 34560ft 504kts
22-Jul-12 11:03 22.126493 119.283102 277 34560ft 504kts
22-Jul-12 11:04 22.144622 119.133103 277 34560ft 504kts
22-Jul-12 11:05 22.162601 118.983161 277 34560ft 504kts
22-Jul-12 11:06 22.180831 118.833443 277 34560ft 504kts
22-Jul-12 11:07 22.198971 118.683164 277 34560ft 504kts
22-Jul-12 11:08 22.216612 118.532869 277 34560ft 504kts
22-Jul-12 11:09 22.234019 118.383016 277 34560ft 504kts
22-Jul-12 11:10 22.249080 118.252339 277 34560ft 504kts
22-Jul-12 11:11 22.260682 118.151027 277 34560ft 504kts
22-Jul-12 11:12 22.277779 118.000689 277 34560ft 504kts
22-Jul-12 11:13 22.294991 117.850651 277 34560ft 504kts
22-Jul-12 11:14 22.312269 117.700722 276 34560ft 504kts
22-Jul-12 11:15 22.329023 117.550170 276 34560ft 504kts
22-Jul-12 11:16 22.331677 117.399252 268 34559ft 504kts
22-Jul-12 11:18 22.328884 117.296963 268 34004ft 500kts
22-Jul-12 11:19 22.328786 117.293045 268 33972ft 500kts
22-Jul-12 11:20 22.325154 117.144709 268 32709ft 490kts
22-Jul-12 11:21 22.321570 116.999882 268 30779ft 475kts
22-Jul-12 11:22 22.318202 116.859533 268 28870ft 461kts
22-Jul-12 11:23 22.315120 116.722579 268 27379ft 450kts
22-Jul-12 11:24 22.311477 116.587169 268 27360ft 451kts
22-Jul-12 11:25 22.309889 116.530079 268 27360ft 451kts
22-Jul-12 11:26 22.309889 116.530079 268 27360ft 451kts
22-Jul-12 11:27 22.309889 116.530079 268 27360ft 451kts
22-Jul-12 11:28 22.309889 116.530079 268 27360ft 451kts
22-Jul-12 11:29 22.309889 116.530079 268 27360ft 451kts
22-Jul-12 11:30 22.309889 116.530079 268 27360ft 451kts
22-Jul-12 11:31 22.309889 116.530079 268 27360ft 451kts
22-Jul-12 11:32 22.307611 116.449557 268 27360ft 451kts
22-Jul-12 11:33 22.303681 116.313926 268 27360ft 451kts
22-Jul-12 11:34 22.299639 116.178373 268 27360ft 451kts
22-Jul-12 11:35 22.295484 116.042810 268 27360ft 451kts
22-Jul-12 11:36 22.293731 115.986630 268 27197ft 451kts
22-Jul-12 11:37 22.293731 115.986630 268 27197ft 451kts
22-Jul-12 11:38 22.293731 115.986630 268 27197ft 451kts
22-Jul-12 11:39 22.293731 115.986630 268 27197ft 451kts
22-Jul-12 11:40 22.293731 115.986630 268 27197ft 451kts
22-Jul-12 11:41 22.291577 115.918176 268 26563ft 446kts
22-Jul-12 11:42 22.332877 115.801048 318 25373ft 438kts
22-Jul-12 11:43 22.428284 115.721180 324 24174ft 430kts
22-Jul-12 11:44 22.506222 115.629664 279 22915ft 421kts
22-Jul-12 11:45 22.494858 115.546222 266 22770ft 421kts
22-Jul-12 11:46 22.494858 115.546222 266 22770ft 421kts
22-Jul-12 11:47 22.494661 115.539083 271 22764ft 421kts
22-Jul-12 11:48 22.476757 115.414801 256 22781ft 421kts
22-Jul-12 11:49 22.450729 115.291422 257 21913ft 416kts
22-Jul-12 11:50 22.426296 115.174460 257 19629ft 357kts
22-Jul-12 11:51 22.405824 115.076749 257 17682ft 324kts
22-Jul-12 11:52 22.386142 114.983115 257 15674ft 314kts
22-Jul-12 11:53 22.369226 114.902928 257 14653ft 309kts
22-Jul-12 11:54 22.369226 114.902928 257 14653ft 309kts
22-Jul-12 11:55 22.357348 114.844837 257 14640ft 309kts
22-Jul-12 11:56 22.338411 114.753700 257 14640ft 309kts
22-Jul-12 11:57 22.322427 114.677971 257 14640ft 309kts
22-Jul-12 11:58 22.301450 114.579207 256 14440ft 309kts
22-Jul-12 11:59 22.301450 114.579207 256 14440ft 309kts
22-Jul-12 12:00 22.301450 114.579207 256 14440ft 309kts
22-Jul-12 12:01 22.290261 114.526680 256 14028ft 307kts
22-Jul-12 12:02 22.271286 114.437797 256 12479ft 300kts
22-Jul-12 12:03 22.252768 114.351342 256 10675ft 292kts
22-Jul-12 12:04 22.248198 114.267187 286 9335ft 286kts
22-Jul-12 12:05 22.271031 114.185994 287 7129ft 262kts
22-Jul-12 12:06 22.292031 114.115287 288 5071ft 230kts
22-Jul-12 12:07 22.309037 114.058790 288 4237ft 194kts
22-Jul-12 12:08 22.325242 114.004937 287 2997ft 209kts
22-Jul-12 12:09 22.328646 113.950946 251 898ft 158kts
22-Jul-12 12:10 22.316776 113.916255 251 20ft 80kts
22-Jul-12 12:11 22.314336 113.908341 251 15ft 20kts
22-Jul-12 12:12 22.314336 113.908341 251 15ft 20kts
22-Jul-12 12:13 22.314485 113.908827 251 16ft 21kts
22-Jul-12 12:14 22.323692 113.937259 249 208ft 146kts
22-Jul-12 12:15 22.324437 114.007660 287 3048ft 206kts
22-Jul-12 12:16 22.329679 113.954624 258 1125ft 158kts
22-Jul-12 12:17 22.318896 113.923022 250 12ft 90kts
22-Jul-12 12:18 22.313603 113.906084 250 15ft 22kts
22-Jul-12 12:19 22.311674 113.902031 220 18ft 5kts
22-Jul-12 12:20 22.310215 113.900848 219 18ft 3kts
22-Jul-12 12:21 22.306348 113.901336 166 19ft 3kts
22-Jul-12 12:22 22.306037 113.900821 255 21ft 0kts
22-Jul-12 12:23 22.306037 113.900821 255 21ft 0kts
22-Jul-12 12:24 22.306037 113.900821 255 21ft 0kts
22-Jul-12 12:25 22.306037 113.900821 255 21ft 0kts

Navigation Log

Ident Type
Flight plan parsing failed, navigation log unavailable